<?xml version="1.0" encoding="UTF-8" standalone="no" ?>
<gpx xmlns="http://www.topografix.com/GPX/1/1" xmlns:xsi="http://www.w3.org/2001/XMLSchema-instance" xsi:schemaLocation="http://www.topografix.com/GPX/1/1 http://www.topografix.com/GPX/1/1/gpx.xsd" version="1.1" creator="VisuGPX - https://www.visugpx.com">
  <metadata>
    <name>juvignac oppidum murviel</name>
  </metadata>
  <trk>
    <name><![CDATA[juvignac oppidum murviel_1]]></name>
    <extensions>
      <line xmlns="http://www.topografix.com/GPX/gpx_style/0/2">
        <color>0000FF</color>
        <width>4</width>
      </line>
    </extensions>
    <trkseg>
      <trkpt lat="43.61165" lon="3.82802">
        <ele>63.793228</ele>
        <time>2020-09-13T06:30:55Z</time>
      </trkpt>
      <trkpt lat="43.61169" lon="3.82766">
        <ele>63.949001</ele>
        <time>2020-09-13T06:31:00Z</time>
      </trkpt>
      <trkpt lat="43.61174" lon="3.82732">
        <ele>64.30957</ele>
        <time>2020-09-13T06:31:05Z</time>
      </trkpt>
      <trkpt lat="43.6118" lon="3.82698">
        <ele>64.747383</ele>
        <time>2020-09-13T06:31:10Z</time>
      </trkpt>
      <trkpt lat="43.61187" lon="3.82665">
        <ele>65.645836</ele>
        <time>2020-09-13T06:31:15Z</time>
      </trkpt>
      <trkpt lat="43.61191" lon="3.82633">
        <ele>66.16037</ele>
        <time>2020-09-13T06:31:20Z</time>
      </trkpt>
      <trkpt lat="43.61196" lon="3.82601">
        <ele>66.698784</ele>
        <time>2020-09-13T06:31:25Z</time>
      </trkpt>
      <trkpt lat="43.61201" lon="3.82571">
        <ele>66.684578</ele>
        <time>2020-09-13T06:31:30Z</time>
      </trkpt>
      <trkpt lat="43.6121" lon="3.82547">
        <ele>65.703125</ele>
        <time>2020-09-13T06:31:35Z</time>
      </trkpt>
      <trkpt lat="43.61214" lon="3.82543">
        <ele>63.973389</ele>
        <time>2020-09-13T06:31:40Z</time>
      </trkpt>
      <trkpt lat="43.61232" lon="3.82525">
        <ele>62.255127</ele>
        <time>2020-09-13T06:31:55Z</time>
      </trkpt>
      <trkpt lat="43.61255" lon="3.8252">
        <ele>60.658672</ele>
        <time>2020-09-13T06:32:05Z</time>
      </trkpt>
      <trkpt lat="43.61276" lon="3.82506">
        <ele>58.634144</ele>
        <time>2020-09-13T06:32:10Z</time>
      </trkpt>
      <trkpt lat="43.61294" lon="3.82487">
        <ele>56.291138</ele>
        <time>2020-09-13T06:32:15Z</time>
      </trkpt>
      <trkpt lat="43.61301" lon="3.82471">
        <ele>54.384411</ele>
        <time>2020-09-13T06:32:20Z</time>
      </trkpt>
      <trkpt lat="43.61313" lon="3.82449">
        <ele>52.690907</ele>
        <time>2020-09-13T06:32:25Z</time>
      </trkpt>
      <trkpt lat="43.61319" lon="3.82418">
        <ele>51.589375</ele>
        <time>2020-09-13T06:32:30Z</time>
      </trkpt>
      <trkpt lat="43.61311" lon="3.82377">
        <ele>49.901367</ele>
        <time>2020-09-13T06:32:35Z</time>
      </trkpt>
      <trkpt lat="43.61307" lon="3.82341">
        <ele>47.861969</ele>
        <time>2020-09-13T06:32:40Z</time>
      </trkpt>
      <trkpt lat="43.61318" lon="3.82311">
        <ele>45.408401</ele>
        <time>2020-09-13T06:32:45Z</time>
      </trkpt>
      <trkpt lat="43.61335" lon="3.82295">
        <ele>44.277313</ele>
        <time>2020-09-13T06:32:50Z</time>
      </trkpt>
      <trkpt lat="43.61359" lon="3.82272">
        <ele>43.80534</ele>
        <time>2020-09-13T06:32:55Z</time>
      </trkpt>
      <trkpt lat="43.61393" lon="3.82255">
        <ele>43.639729</ele>
        <time>2020-09-13T06:33:00Z</time>
      </trkpt>
      <trkpt lat="43.61425" lon="3.82232">
        <ele>43.989258</ele>
        <time>2020-09-13T06:33:05Z</time>
      </trkpt>
      <trkpt lat="43.61459" lon="3.82215">
        <ele>44.356445</ele>
        <time>2020-09-13T06:33:10Z</time>
      </trkpt>
      <trkpt lat="43.61492" lon="3.82209">
        <ele>45.383625</ele>
        <time>2020-09-13T06:33:15Z</time>
      </trkpt>
      <trkpt lat="43.61515" lon="3.82203">
        <ele>47.12785</ele>
        <time>2020-09-13T06:33:20Z</time>
      </trkpt>
      <trkpt lat="43.61527" lon="3.8219">
        <ele>47.797394</ele>
        <time>2020-09-13T06:33:25Z</time>
      </trkpt>
      <trkpt lat="43.61542" lon="3.82176">
        <ele>47.889072</ele>
        <time>2020-09-13T06:33:30Z</time>
      </trkpt>
      <trkpt lat="43.61545" lon="3.82143">
        <ele>47.733723</ele>
        <time>2020-09-13T06:33:35Z</time>
      </trkpt>
      <trkpt lat="43.61551" lon="3.82109">
        <ele>46.832092</ele>
        <time>2020-09-13T06:33:40Z</time>
      </trkpt>
      <trkpt lat="43.61553" lon="3.82072">
        <ele>45.939281</ele>
        <time>2020-09-13T06:33:45Z</time>
      </trkpt>
      <trkpt lat="43.61556" lon="3.82033">
        <ele>44.417725</ele>
        <time>2020-09-13T06:33:50Z</time>
      </trkpt>
      <trkpt lat="43.61556" lon="3.81999">
        <ele>43.200115</ele>
        <time>2020-09-13T06:33:55Z</time>
      </trkpt>
      <trkpt lat="43.61572" lon="3.81977">
        <ele>42.79726</ele>
        <time>2020-09-13T06:34:00Z</time>
      </trkpt>
      <trkpt lat="43.61591" lon="3.81967">
        <ele>42.802929</ele>
        <time>2020-09-13T06:34:05Z</time>
      </trkpt>
      <trkpt lat="43.61593" lon="3.81953">
        <ele>42.799221</ele>
        <time>2020-09-13T06:34:10Z</time>
      </trkpt>
      <trkpt lat="43.61586" lon="3.81929">
        <ele>42.601807</ele>
        <time>2020-09-13T06:34:15Z</time>
      </trkpt>
      <trkpt lat="43.61578" lon="3.81896">
        <ele>42.356365</ele>
        <time>2020-09-13T06:34:20Z</time>
      </trkpt>
      <trkpt lat="43.6157" lon="3.81862">
        <ele>41.828449</ele>
        <time>2020-09-13T06:34:25Z</time>
      </trkpt>
      <trkpt lat="43.61561" lon="3.81828">
        <ele>41.514385</ele>
        <time>2020-09-13T06:34:30Z</time>
      </trkpt>
      <trkpt lat="43.61553" lon="3.81798">
        <ele>41.119808</ele>
        <time>2020-09-13T06:34:35Z</time>
      </trkpt>
      <trkpt lat="43.61546" lon="3.81772">
        <ele>41.168705</ele>
        <time>2020-09-13T06:34:40Z</time>
      </trkpt>
      <trkpt lat="43.6154" lon="3.81746">
        <ele>41.384304</ele>
        <time>2020-09-13T06:34:45Z</time>
      </trkpt>
      <trkpt lat="43.61533" lon="3.8172">
        <ele>42.395012</ele>
        <time>2020-09-13T06:34:50Z</time>
      </trkpt>
      <trkpt lat="43.61525" lon="3.81692">
        <ele>43.233768</ele>
        <time>2020-09-13T06:34:55Z</time>
      </trkpt>
      <trkpt lat="43.61517" lon="3.81661">
        <ele>44.288799</ele>
        <time>2020-09-13T06:35:00Z</time>
      </trkpt>
      <trkpt lat="43.61507" lon="3.81629">
        <ele>45.337742</ele>
        <time>2020-09-13T06:35:05Z</time>
      </trkpt>
      <trkpt lat="43.61499" lon="3.81596">
        <ele>46.205624</ele>
        <time>2020-09-13T06:35:10Z</time>
      </trkpt>
      <trkpt lat="43.61495" lon="3.81564">
        <ele>47.637585</ele>
        <time>2020-09-13T06:35:15Z</time>
      </trkpt>
      <trkpt lat="43.61493" lon="3.81536">
        <ele>48.89172</ele>
        <time>2020-09-13T06:35:20Z</time>
      </trkpt>
      <trkpt lat="43.61484" lon="3.81517">
        <ele>49.726398</ele>
        <time>2020-09-13T06:35:25Z</time>
      </trkpt>
      <trkpt lat="43.61469" lon="3.81511">
        <ele>50.042889</ele>
        <time>2020-09-13T06:35:30Z</time>
      </trkpt>
      <trkpt lat="43.61462" lon="3.81488">
        <ele>50.206787</ele>
        <time>2020-09-13T06:35:35Z</time>
      </trkpt>
      <trkpt lat="43.61454" lon="3.81463">
        <ele>50.428741</ele>
        <time>2020-09-13T06:35:40Z</time>
      </trkpt>
      <trkpt lat="43.61446" lon="3.81437">
        <ele>50.438431</ele>
        <time>2020-09-13T06:35:45Z</time>
      </trkpt>
      <trkpt lat="43.61437" lon="3.81409">
        <ele>50.304108</ele>
        <time>2020-09-13T06:35:50Z</time>
      </trkpt>
      <trkpt lat="43.61432" lon="3.81386">
        <ele>50.065887</ele>
        <time>2020-09-13T06:35:55Z</time>
      </trkpt>
      <trkpt lat="43.61424" lon="3.81358">
        <ele>49.895344</ele>
        <time>2020-09-13T06:36:00Z</time>
      </trkpt>
      <trkpt lat="43.61416" lon="3.81329">
        <ele>49.66341</ele>
        <time>2020-09-13T06:36:05Z</time>
      </trkpt>
      <trkpt lat="43.61411" lon="3.81299">
        <ele>49.027508</ele>
        <time>2020-09-13T06:36:10Z</time>
      </trkpt>
      <trkpt lat="43.61408" lon="3.81271">
        <ele>48.557049</ele>
        <time>2020-09-13T06:36:15Z</time>
      </trkpt>
      <trkpt lat="43.61407" lon="3.81244">
        <ele>48.509686</ele>
        <time>2020-09-13T06:36:20Z</time>
      </trkpt>
      <trkpt lat="43.61406" lon="3.81218">
        <ele>48.873371</ele>
        <time>2020-09-13T06:36:25Z</time>
      </trkpt>
      <trkpt lat="43.61407" lon="3.81192">
        <ele>49.227539</ele>
        <time>2020-09-13T06:36:30Z</time>
      </trkpt>
      <trkpt lat="43.61408" lon="3.81166">
        <ele>49.880371</ele>
        <time>2020-09-13T06:36:35Z</time>
      </trkpt>
      <trkpt lat="43.61408" lon="3.8114">
        <ele>50.856281</ele>
        <time>2020-09-13T06:36:40Z</time>
      </trkpt>
      <trkpt lat="43.61406" lon="3.81114">
        <ele>51.814129</ele>
        <time>2020-09-13T06:36:45Z</time>
      </trkpt>
      <trkpt lat="43.61408" lon="3.81087">
        <ele>52.935547</ele>
        <time>2020-09-13T06:36:50Z</time>
      </trkpt>
      <trkpt lat="43.61418" lon="3.81068">
        <ele>53.892414</ele>
        <time>2020-09-13T06:36:55Z</time>
      </trkpt>
      <trkpt lat="43.61411" lon="3.81052">
        <ele>55.234863</ele>
        <time>2020-09-13T06:37:00Z</time>
      </trkpt>
      <trkpt lat="43.614" lon="3.81029">
        <ele>55.875652</ele>
        <time>2020-09-13T06:37:05Z</time>
      </trkpt>
      <trkpt lat="43.61397" lon="3.81">
        <ele>56.502747</ele>
        <time>2020-09-13T06:37:10Z</time>
      </trkpt>
      <trkpt lat="43.61395" lon="3.80975">
        <ele>57.368118</ele>
        <time>2020-09-13T06:37:15Z</time>
      </trkpt>
      <trkpt lat="43.61392" lon="3.80951">
        <ele>58.326206</ele>
        <time>2020-09-13T06:37:20Z</time>
      </trkpt>
      <trkpt lat="43.61389" lon="3.80926">
        <ele>59.008499</ele>
        <time>2020-09-13T06:37:25Z</time>
      </trkpt>
      <trkpt lat="43.61385" lon="3.809">
        <ele>59.226643</ele>
        <time>2020-09-13T06:37:30Z</time>
      </trkpt>
      <trkpt lat="43.61384" lon="3.80875">
        <ele>59.360092</ele>
        <time>2020-09-13T06:37:35Z</time>
      </trkpt>
      <trkpt lat="43.61383" lon="3.80848">
        <ele>59.458317</ele>
        <time>2020-09-13T06:37:40Z</time>
      </trkpt>
      <trkpt lat="43.61382" lon="3.8082">
        <ele>59.497253</ele>
        <time>2020-09-13T06:37:45Z</time>
      </trkpt>
      <trkpt lat="43.61382" lon="3.80791">
        <ele>59.465332</ele>
        <time>2020-09-13T06:37:50Z</time>
      </trkpt>
      <trkpt lat="43.61382" lon="3.80761">
        <ele>59.457355</ele>
        <time>2020-09-13T06:37:55Z</time>
      </trkpt>
      <trkpt lat="43.61385" lon="3.80732">
        <ele>59.470539</ele>
        <time>2020-09-13T06:38:00Z</time>
      </trkpt>
      <trkpt lat="43.61389" lon="3.80705">
        <ele>59.508625</ele>
        <time>2020-09-13T06:38:05Z</time>
      </trkpt>
      <trkpt lat="43.61392" lon="3.80677">
        <ele>59.628094</ele>
        <time>2020-09-13T06:38:10Z</time>
      </trkpt>
      <trkpt lat="43.61394" lon="3.80648">
        <ele>59.81218</ele>
        <time>2020-09-13T06:38:15Z</time>
      </trkpt>
      <trkpt lat="43.614" lon="3.8062">
        <ele>60.250061</ele>
        <time>2020-09-13T06:38:20Z</time>
      </trkpt>
      <trkpt lat="43.61398" lon="3.80591">
        <ele>61.043793</ele>
        <time>2020-09-13T06:38:25Z</time>
      </trkpt>
      <trkpt lat="43.61401" lon="3.80563">
        <ele>61.865429</ele>
        <time>2020-09-13T06:38:30Z</time>
      </trkpt>
      <trkpt lat="43.61404" lon="3.80537">
        <ele>62.706055</ele>
        <time>2020-09-13T06:38:35Z</time>
      </trkpt>
      <trkpt lat="43.61405" lon="3.8051">
        <ele>63.505939</ele>
        <time>2020-09-13T06:38:40Z</time>
      </trkpt>
      <trkpt lat="43.61408" lon="3.80483">
        <ele>64.056488</ele>
        <time>2020-09-13T06:38:45Z</time>
      </trkpt>
      <trkpt lat="43.61408" lon="3.80455">
        <ele>64.844093</ele>
        <time>2020-09-13T06:38:50Z</time>
      </trkpt>
      <trkpt lat="43.61409" lon="3.8043">
        <ele>65.395065</ele>
        <time>2020-09-13T06:38:55Z</time>
      </trkpt>
      <trkpt lat="43.61412" lon="3.80402">
        <ele>65.774742</ele>
        <time>2020-09-13T06:39:00Z</time>
      </trkpt>
      <trkpt lat="43.61413" lon="3.80373">
        <ele>66.157143</ele>
        <time>2020-09-13T06:39:05Z</time>
      </trkpt>
      <trkpt lat="43.61416" lon="3.80343">
        <ele>66.689613</ele>
        <time>2020-09-13T06:39:10Z</time>
      </trkpt>
      <trkpt lat="43.61418" lon="3.80316">
        <ele>67.232544</ele>
        <time>2020-09-13T06:39:15Z</time>
      </trkpt>
      <trkpt lat="43.61421" lon="3.80286">
        <ele>67.542137</ele>
        <time>2020-09-13T06:39:20Z</time>
      </trkpt>
      <trkpt lat="43.61424" lon="3.80257">
        <ele>67.716469</ele>
        <time>2020-09-13T06:39:25Z</time>
      </trkpt>
      <trkpt lat="43.61429" lon="3.80231">
        <ele>67.866188</ele>
        <time>2020-09-13T06:39:30Z</time>
      </trkpt>
      <trkpt lat="43.61432" lon="3.80207">
        <ele>68.302788</ele>
        <time>2020-09-13T06:39:35Z</time>
      </trkpt>
      <trkpt lat="43.61437" lon="3.80182">
        <ele>68.701813</ele>
        <time>2020-09-13T06:39:40Z</time>
      </trkpt>
      <trkpt lat="43.61442" lon="3.80157">
        <ele>68.786102</ele>
        <time>2020-09-13T06:39:45Z</time>
      </trkpt>
      <trkpt lat="43.61448" lon="3.80132">
        <ele>68.616051</ele>
        <time>2020-09-13T06:39:50Z</time>
      </trkpt>
      <trkpt lat="43.61454" lon="3.80109">
        <ele>68.48172</ele>
        <time>2020-09-13T06:39:55Z</time>
      </trkpt>
      <trkpt lat="43.61459" lon="3.80086">
        <ele>68.469315</ele>
        <time>2020-09-13T06:40:00Z</time>
      </trkpt>
      <trkpt lat="43.61472" lon="3.80076">
        <ele>68.512825</ele>
        <time>2020-09-13T06:40:05Z</time>
      </trkpt>
      <trkpt lat="43.61469" lon="3.80058">
        <ele>68.590218</ele>
        <time>2020-09-13T06:40:10Z</time>
      </trkpt>
      <trkpt lat="43.61459" lon="3.80033">
        <ele>68.533516</ele>
        <time>2020-09-13T06:40:15Z</time>
      </trkpt>
      <trkpt lat="43.61441" lon="3.80022">
        <ele>68.354492</ele>
        <time>2020-09-13T06:40:20Z</time>
      </trkpt>
      <trkpt lat="43.61429" lon="3.79978">
        <ele>68.121178</ele>
        <time>2020-09-13T06:40:25Z</time>
      </trkpt>
      <trkpt lat="43.61408" lon="3.79925">
        <ele>67.727539</ele>
        <time>2020-09-13T06:40:30Z</time>
      </trkpt>
      <trkpt lat="43.6139" lon="3.79895">
        <ele>66.690269</ele>
        <time>2020-09-13T06:40:35Z</time>
      </trkpt>
      <trkpt lat="43.61385" lon="3.79871">
        <ele>65.443604</ele>
        <time>2020-09-13T06:40:40Z</time>
      </trkpt>
      <trkpt lat="43.61393" lon="3.79839">
        <ele>64.8479</ele>
        <time>2020-09-13T06:40:45Z</time>
      </trkpt>
      <trkpt lat="43.61399" lon="3.79799">
        <ele>64.632469</ele>
        <time>2020-09-13T06:40:50Z</time>
      </trkpt>
      <trkpt lat="43.61411" lon="3.79753">
        <ele>63.222713</ele>
        <time>2020-09-13T06:40:55Z</time>
      </trkpt>
      <trkpt lat="43.61424" lon="3.79705">
        <ele>61.724655</ele>
        <time>2020-09-13T06:41:00Z</time>
      </trkpt>
      <trkpt lat="43.61441" lon="3.79654">
        <ele>59.777115</ele>
        <time>2020-09-13T06:41:05Z</time>
      </trkpt>
      <trkpt lat="43.61451" lon="3.79598">
        <ele>58.652996</ele>
        <time>2020-09-13T06:41:10Z</time>
      </trkpt>
      <trkpt lat="43.61456" lon="3.79545">
        <ele>56.903835</ele>
        <time>2020-09-13T06:41:15Z</time>
      </trkpt>
      <trkpt lat="43.61459" lon="3.79497">
        <ele>56.394089</ele>
        <time>2020-09-13T06:41:20Z</time>
      </trkpt>
      <trkpt lat="43.61462" lon="3.79457">
        <ele>56.815796</ele>
        <time>2020-09-13T06:41:25Z</time>
      </trkpt>
      <trkpt lat="43.61467" lon="3.79423">
        <ele>58.281906</ele>
        <time>2020-09-13T06:41:30Z</time>
      </trkpt>
      <trkpt lat="43.61474" lon="3.79389">
        <ele>59.402134</ele>
        <time>2020-09-13T06:41:35Z</time>
      </trkpt>
      <trkpt lat="43.61484" lon="3.79356">
        <ele>59.81535</ele>
        <time>2020-09-13T06:41:40Z</time>
      </trkpt>
      <trkpt lat="43.61494" lon="3.79323">
        <ele>60.490643</ele>
        <time>2020-09-13T06:41:45Z</time>
      </trkpt>
      <trkpt lat="43.61504" lon="3.79291">
        <ele>61.511845</ele>
        <time>2020-09-13T06:41:50Z</time>
      </trkpt>
      <trkpt lat="43.61514" lon="3.7926">
        <ele>62.273865</ele>
        <time>2020-09-13T06:41:55Z</time>
      </trkpt>
      <trkpt lat="43.61522" lon="3.79228">
        <ele>63.301739</ele>
        <time>2020-09-13T06:42:00Z</time>
      </trkpt>
      <trkpt lat="43.6153" lon="3.79197">
        <ele>63.983471</ele>
        <time>2020-09-13T06:42:05Z</time>
      </trkpt>
      <trkpt lat="43.61538" lon="3.79169">
        <ele>65.050018</ele>
        <time>2020-09-13T06:42:10Z</time>
      </trkpt>
      <trkpt lat="43.61545" lon="3.79144">
        <ele>65.699577</ele>
        <time>2020-09-13T06:42:15Z</time>
      </trkpt>
      <trkpt lat="43.61549" lon="3.7912">
        <ele>66.214111</ele>
        <time>2020-09-13T06:42:20Z</time>
      </trkpt>
      <trkpt lat="43.61554" lon="3.79097">
        <ele>66.793297</ele>
        <time>2020-09-13T06:42:25Z</time>
      </trkpt>
      <trkpt lat="43.61557" lon="3.79077">
        <ele>67.087135</ele>
        <time>2020-09-13T06:42:30Z</time>
      </trkpt>
      <trkpt lat="43.61561" lon="3.79058">
        <ele>67.450554</ele>
        <time>2020-09-13T06:42:35Z</time>
      </trkpt>
      <trkpt lat="43.61564" lon="3.79037">
        <ele>67.654045</ele>
        <time>2020-09-13T06:42:40Z</time>
      </trkpt>
      <trkpt lat="43.61567" lon="3.79016">
        <ele>67.859871</ele>
        <time>2020-09-13T06:42:45Z</time>
      </trkpt>
      <trkpt lat="43.61567" lon="3.78993">
        <ele>68.055412</ele>
        <time>2020-09-13T06:42:50Z</time>
      </trkpt>
      <trkpt lat="43.61566" lon="3.78968">
        <ele>68.795212</ele>
        <time>2020-09-13T06:42:55Z</time>
      </trkpt>
      <trkpt lat="43.61564" lon="3.78943">
        <ele>69.51931</ele>
        <time>2020-09-13T06:43:00Z</time>
      </trkpt>
      <trkpt lat="43.61559" lon="3.78927">
        <ele>70.675827</ele>
        <time>2020-09-13T06:43:05Z</time>
      </trkpt>
      <trkpt lat="43.61559" lon="3.7891">
        <ele>72.308296</ele>
        <time>2020-09-13T06:43:10Z</time>
      </trkpt>
      <trkpt lat="43.61552" lon="3.7889">
        <ele>73.0858</ele>
        <time>2020-09-13T06:43:15Z</time>
      </trkpt>
      <trkpt lat="43.61549" lon="3.78868">
        <ele>74.419624</ele>
        <time>2020-09-13T06:43:20Z</time>
      </trkpt>
      <trkpt lat="43.61548" lon="3.78845">
        <ele>75.988281</ele>
        <time>2020-09-13T06:43:25Z</time>
      </trkpt>
      <trkpt lat="43.61548" lon="3.78821">
        <ele>76.802734</ele>
        <time>2020-09-13T06:43:30Z</time>
      </trkpt>
      <trkpt lat="43.61555" lon="3.78803">
        <ele>77.413544</ele>
        <time>2020-09-13T06:43:35Z</time>
      </trkpt>
      <trkpt lat="43.61564" lon="3.78792">
        <ele>77.494408</ele>
        <time>2020-09-13T06:43:40Z</time>
      </trkpt>
      <trkpt lat="43.6157" lon="3.78766">
        <ele>77.193626</ele>
        <time>2020-09-13T06:43:45Z</time>
      </trkpt>
      <trkpt lat="43.61575" lon="3.78753">
        <ele>77.445854</ele>
        <time>2020-09-13T06:43:50Z</time>
      </trkpt>
      <trkpt lat="43.61581" lon="3.78746">
        <ele>77.752083</ele>
        <time>2020-09-13T06:43:55Z</time>
      </trkpt>
      <trkpt lat="43.61589" lon="3.78732">
        <ele>77.988708</ele>
        <time>2020-09-13T06:44:00Z</time>
      </trkpt>
      <trkpt lat="43.61597" lon="3.78718">
        <ele>78.224899</ele>
        <time>2020-09-13T06:44:05Z</time>
      </trkpt>
      <trkpt lat="43.61612" lon="3.78701">
        <ele>78.972115</ele>
        <time>2020-09-13T06:44:10Z</time>
      </trkpt>
      <trkpt lat="43.61624" lon="3.78684">
        <ele>79.263573</ele>
        <time>2020-09-13T06:44:15Z</time>
      </trkpt>
      <trkpt lat="43.61633" lon="3.78671">
        <ele>79.533638</ele>
        <time>2020-09-13T06:44:20Z</time>
      </trkpt>
      <trkpt lat="43.61643" lon="3.78661">
        <ele>79.9058</ele>
        <time>2020-09-13T06:44:25Z</time>
      </trkpt>
      <trkpt lat="43.61644" lon="3.78649">
        <ele>80.093941</ele>
        <time>2020-09-13T06:44:30Z</time>
      </trkpt>
      <trkpt lat="43.61652" lon="3.7864">
        <ele>80.601692</ele>
        <time>2020-09-13T06:44:35Z</time>
      </trkpt>
      <trkpt lat="43.61659" lon="3.78629">
        <ele>80.920219</ele>
        <time>2020-09-13T06:44:40Z</time>
      </trkpt>
      <trkpt lat="43.61666" lon="3.78618">
        <ele>81.064461</ele>
        <time>2020-09-13T06:44:45Z</time>
      </trkpt>
      <trkpt lat="43.61671" lon="3.78609">
        <ele>81.239342</ele>
        <time>2020-09-13T06:44:50Z</time>
      </trkpt>
      <trkpt lat="43.61676" lon="3.78602">
        <ele>81.125336</ele>
        <time>2020-09-13T06:44:55Z</time>
      </trkpt>
      <trkpt lat="43.6168" lon="3.78591">
        <ele>80.875923</ele>
        <time>2020-09-13T06:45:00Z</time>
      </trkpt>
      <trkpt lat="43.61685" lon="3.7858">
        <ele>80.777176</ele>
        <time>2020-09-13T06:45:05Z</time>
      </trkpt>
      <trkpt lat="43.61691" lon="3.78569">
        <ele>80.731361</ele>
        <time>2020-09-13T06:45:10Z</time>
      </trkpt>
      <trkpt lat="43.61697" lon="3.78558">
        <ele>80.600311</ele>
        <time>2020-09-13T06:45:15Z</time>
      </trkpt>
      <trkpt lat="43.61703" lon="3.78549">
        <ele>80.520393</ele>
        <time>2020-09-13T06:45:20Z</time>
      </trkpt>
      <trkpt lat="43.61708" lon="3.78538">
        <ele>80.467316</ele>
        <time>2020-09-13T06:45:25Z</time>
      </trkpt>
      <trkpt lat="43.61713" lon="3.78529">
        <ele>80.408272</ele>
        <time>2020-09-13T06:45:30Z</time>
      </trkpt>
      <trkpt lat="43.61716" lon="3.78516">
        <ele>80.377846</ele>
        <time>2020-09-13T06:45:35Z</time>
      </trkpt>
      <trkpt lat="43.6172" lon="3.78503">
        <ele>80.520401</ele>
        <time>2020-09-13T06:45:40Z</time>
      </trkpt>
      <trkpt lat="43.61724" lon="3.78489">
        <ele>80.740005</ele>
        <time>2020-09-13T06:45:45Z</time>
      </trkpt>
      <trkpt lat="43.61728" lon="3.78475">
        <ele>81.002312</ele>
        <time>2020-09-13T06:45:50Z</time>
      </trkpt>
      <trkpt lat="43.61729" lon="3.78457">
        <ele>81.31852</ele>
        <time>2020-09-13T06:45:55Z</time>
      </trkpt>
      <trkpt lat="43.61729" lon="3.78438">
        <ele>81.95108</ele>
        <time>2020-09-13T06:46:00Z</time>
      </trkpt>
      <trkpt lat="43.61728" lon="3.78415">
        <ele>82.691841</ele>
        <time>2020-09-13T06:46:05Z</time>
      </trkpt>
      <trkpt lat="43.61722" lon="3.78387">
        <ele>83.22049</ele>
        <time>2020-09-13T06:46:10Z</time>
      </trkpt>
      <trkpt lat="43.61717" lon="3.78351">
        <ele>84.71106</ele>
        <time>2020-09-13T06:46:15Z</time>
      </trkpt>
      <trkpt lat="43.61718" lon="3.78318">
        <ele>86.163574</ele>
        <time>2020-09-13T06:46:20Z</time>
      </trkpt>
      <trkpt lat="43.61721" lon="3.78293">
        <ele>87.026207</ele>
        <time>2020-09-13T06:46:25Z</time>
      </trkpt>
      <trkpt lat="43.61725" lon="3.7827">
        <ele>87.737305</ele>
        <time>2020-09-13T06:46:30Z</time>
      </trkpt>
      <trkpt lat="43.61729" lon="3.78249">
        <ele>88.151428</ele>
        <time>2020-09-13T06:46:35Z</time>
      </trkpt>
      <trkpt lat="43.61734" lon="3.78227">
        <ele>88.285667</ele>
        <time>2020-09-13T06:46:40Z</time>
      </trkpt>
      <trkpt lat="43.6174" lon="3.78202">
        <ele>88.434387</ele>
        <time>2020-09-13T06:46:45Z</time>
      </trkpt>
      <trkpt lat="43.61747" lon="3.78178">
        <ele>88.641029</ele>
        <time>2020-09-13T06:46:50Z</time>
      </trkpt>
      <trkpt lat="43.61752" lon="3.78155">
        <ele>89.084801</ele>
        <time>2020-09-13T06:46:55Z</time>
      </trkpt>
      <trkpt lat="43.61757" lon="3.78131">
        <ele>89.473877</ele>
        <time>2020-09-13T06:47:00Z</time>
      </trkpt>
      <trkpt lat="43.61766" lon="3.7811">
        <ele>89.939766</ele>
        <time>2020-09-13T06:47:05Z</time>
      </trkpt>
      <trkpt lat="43.61777" lon="3.78089">
        <ele>90.16967</ele>
        <time>2020-09-13T06:47:10Z</time>
      </trkpt>
      <trkpt lat="43.61791" lon="3.78072">
        <ele>90.357857</ele>
        <time>2020-09-13T06:47:15Z</time>
      </trkpt>
      <trkpt lat="43.61807" lon="3.78055">
        <ele>90.325623</ele>
        <time>2020-09-13T06:47:20Z</time>
      </trkpt>
      <trkpt lat="43.61821" lon="3.78032">
        <ele>90.237915</ele>
        <time>2020-09-13T06:47:25Z</time>
      </trkpt>
      <trkpt lat="43.6183" lon="3.78007">
        <ele>90.423317</ele>
        <time>2020-09-13T06:47:30Z</time>
      </trkpt>
      <trkpt lat="43.61836" lon="3.77982">
        <ele>91.069466</ele>
        <time>2020-09-13T06:47:35Z</time>
      </trkpt>
      <trkpt lat="43.61839" lon="3.77956">
        <ele>91.740562</ele>
        <time>2020-09-13T06:47:40Z</time>
      </trkpt>
      <trkpt lat="43.61839" lon="3.77931">
        <ele>92.392418</ele>
        <time>2020-09-13T06:47:45Z</time>
      </trkpt>
      <trkpt lat="43.61839" lon="3.77907">
        <ele>93.14315</ele>
        <time>2020-09-13T06:47:50Z</time>
      </trkpt>
      <trkpt lat="43.61838" lon="3.77884">
        <ele>94.069145</ele>
        <time>2020-09-13T06:47:55Z</time>
      </trkpt>
      <trkpt lat="43.61834" lon="3.77865">
        <ele>94.997314</ele>
        <time>2020-09-13T06:48:00Z</time>
      </trkpt>
      <trkpt lat="43.61823" lon="3.77863">
        <ele>95.638275</ele>
        <time>2020-09-13T06:48:05Z</time>
      </trkpt>
      <trkpt lat="43.61812" lon="3.77861">
        <ele>95.932854</ele>
        <time>2020-09-13T06:48:10Z</time>
      </trkpt>
      <trkpt lat="43.61799" lon="3.77863">
        <ele>95.979225</ele>
        <time>2020-09-13T06:48:15Z</time>
      </trkpt>
      <trkpt lat="43.61791" lon="3.77851">
        <ele>95.996155</ele>
        <time>2020-09-13T06:48:20Z</time>
      </trkpt>
      <trkpt lat="43.61793" lon="3.77831">
        <ele>96.159325</ele>
        <time>2020-09-13T06:48:25Z</time>
      </trkpt>
      <trkpt lat="43.61799" lon="3.77811">
        <ele>96.505493</ele>
        <time>2020-09-13T06:48:30Z</time>
      </trkpt>
      <trkpt lat="43.61803" lon="3.7779">
        <ele>96.905579</ele>
        <time>2020-09-13T06:48:35Z</time>
      </trkpt>
      <trkpt lat="43.61808" lon="3.77769">
        <ele>97.384941</ele>
        <time>2020-09-13T06:48:40Z</time>
      </trkpt>
      <trkpt lat="43.61813" lon="3.77748">
        <ele>98.032471</ele>
        <time>2020-09-13T06:48:45Z</time>
      </trkpt>
      <trkpt lat="43.61818" lon="3.77727">
        <ele>98.718018</ele>
        <time>2020-09-13T06:48:50Z</time>
      </trkpt>
      <trkpt lat="43.61824" lon="3.77709">
        <ele>99.395103</ele>
        <time>2020-09-13T06:48:55Z</time>
      </trkpt>
      <trkpt lat="43.61829" lon="3.77689">
        <ele>99.984352</ele>
        <time>2020-09-13T06:49:00Z</time>
      </trkpt>
      <trkpt lat="43.61832" lon="3.77667">
        <ele>100.92527</ele>
        <time>2020-09-13T06:49:05Z</time>
      </trkpt>
      <trkpt lat="43.6184" lon="3.77652">
        <ele>101.835022</ele>
        <time>2020-09-13T06:49:10Z</time>
      </trkpt>
      <trkpt lat="43.61847" lon="3.77634">
        <ele>102.584541</ele>
        <time>2020-09-13T06:49:15Z</time>
      </trkpt>
      <trkpt lat="43.61852" lon="3.77611">
        <ele>103.487907</ele>
        <time>2020-09-13T06:49:20Z</time>
      </trkpt>
      <trkpt lat="43.61857" lon="3.7759">
        <ele>103.906868</ele>
        <time>2020-09-13T06:49:25Z</time>
      </trkpt>
      <trkpt lat="43.61863" lon="3.77573">
        <ele>104.224823</ele>
        <time>2020-09-13T06:49:30Z</time>
      </trkpt>
      <trkpt lat="43.61868" lon="3.77553">
        <ele>104.679329</ele>
        <time>2020-09-13T06:49:35Z</time>
      </trkpt>
      <trkpt lat="43.61874" lon="3.77534">
        <ele>105.144371</ele>
        <time>2020-09-13T06:49:40Z</time>
      </trkpt>
      <trkpt lat="43.61881" lon="3.77515">
        <ele>105.905121</ele>
        <time>2020-09-13T06:49:45Z</time>
      </trkpt>
      <trkpt lat="43.61886" lon="3.77495">
        <ele>106.564598</ele>
        <time>2020-09-13T06:49:50Z</time>
      </trkpt>
      <trkpt lat="43.61892" lon="3.77475">
        <ele>107.086113</ele>
        <time>2020-09-13T06:49:55Z</time>
      </trkpt>
      <trkpt lat="43.61898" lon="3.77455">
        <ele>107.621704</ele>
        <time>2020-09-13T06:50:00Z</time>
      </trkpt>
      <trkpt lat="43.61905" lon="3.77437">
        <ele>108.183655</ele>
        <time>2020-09-13T06:50:05Z</time>
      </trkpt>
      <trkpt lat="43.61912" lon="3.77417">
        <ele>108.899498</ele>
        <time>2020-09-13T06:50:10Z</time>
      </trkpt>
      <trkpt lat="43.61919" lon="3.77394">
        <ele>109.856682</ele>
        <time>2020-09-13T06:50:15Z</time>
      </trkpt>
      <trkpt lat="43.61929" lon="3.7737">
        <ele>110.719322</ele>
        <time>2020-09-13T06:50:20Z</time>
      </trkpt>
      <trkpt lat="43.61939" lon="3.77347">
        <ele>111.604347</ele>
        <time>2020-09-13T06:50:25Z</time>
      </trkpt>
      <trkpt lat="43.6195" lon="3.77321">
        <ele>112.185364</ele>
        <time>2020-09-13T06:50:30Z</time>
      </trkpt>
      <trkpt lat="43.61961" lon="3.77295">
        <ele>112.918114</ele>
        <time>2020-09-13T06:50:35Z</time>
      </trkpt>
      <trkpt lat="43.61972" lon="3.77269">
        <ele>113.804298</ele>
        <time>2020-09-13T06:50:40Z</time>
      </trkpt>
      <trkpt lat="43.61984" lon="3.77242">
        <ele>114.82505</ele>
        <time>2020-09-13T06:50:45Z</time>
      </trkpt>
      <trkpt lat="43.61993" lon="3.77215">
        <ele>115.900688</ele>
        <time>2020-09-13T06:50:50Z</time>
      </trkpt>
      <trkpt lat="43.62004" lon="3.77189">
        <ele>116.380287</ele>
        <time>2020-09-13T06:50:55Z</time>
      </trkpt>
      <trkpt lat="43.62015" lon="3.77163">
        <ele>116.569725</ele>
        <time>2020-09-13T06:51:00Z</time>
      </trkpt>
      <trkpt lat="43.62026" lon="3.77138">
        <ele>116.67971</ele>
        <time>2020-09-13T06:51:05Z</time>
      </trkpt>
      <trkpt lat="43.62037" lon="3.77112">
        <ele>116.905273</ele>
        <time>2020-09-13T06:51:10Z</time>
      </trkpt>
      <trkpt lat="43.62047" lon="3.77086">
        <ele>117.420387</ele>
        <time>2020-09-13T06:51:15Z</time>
      </trkpt>
      <trkpt lat="43.62058" lon="3.77061">
        <ele>117.510765</ele>
        <time>2020-09-13T06:51:20Z</time>
      </trkpt>
      <trkpt lat="43.62068" lon="3.77036">
        <ele>117.390129</ele>
        <time>2020-09-13T06:51:25Z</time>
      </trkpt>
      <trkpt lat="43.62079" lon="3.77011">
        <ele>117.328255</ele>
        <time>2020-09-13T06:51:30Z</time>
      </trkpt>
      <trkpt lat="43.6209" lon="3.76986">
        <ele>117.381859</ele>
        <time>2020-09-13T06:51:35Z</time>
      </trkpt>
      <trkpt lat="43.621" lon="3.76961">
        <ele>117.71505</ele>
        <time>2020-09-13T06:51:40Z</time>
      </trkpt>
      <trkpt lat="43.62109" lon="3.76936">
        <ele>118.319969</ele>
        <time>2020-09-13T06:51:45Z</time>
      </trkpt>
      <trkpt lat="43.62118" lon="3.7691">
        <ele>119.2117</ele>
        <time>2020-09-13T06:51:50Z</time>
      </trkpt>
      <trkpt lat="43.62126" lon="3.76886">
        <ele>120.346375</ele>
        <time>2020-09-13T06:51:55Z</time>
      </trkpt>
      <trkpt lat="43.62135" lon="3.76861">
        <ele>121.445824</ele>
        <time>2020-09-13T06:52:00Z</time>
      </trkpt>
      <trkpt lat="43.62145" lon="3.76841">
        <ele>122.386963</ele>
        <time>2020-09-13T06:52:05Z</time>
      </trkpt>
      <trkpt lat="43.62152" lon="3.76816">
        <ele>122.862953</ele>
        <time>2020-09-13T06:52:10Z</time>
      </trkpt>
      <trkpt lat="43.62159" lon="3.76789">
        <ele>123.338776</ele>
        <time>2020-09-13T06:52:15Z</time>
      </trkpt>
      <trkpt lat="43.62166" lon="3.76761">
        <ele>123.636391</ele>
        <time>2020-09-13T06:52:20Z</time>
      </trkpt>
      <trkpt lat="43.62173" lon="3.76735">
        <ele>123.851143</ele>
        <time>2020-09-13T06:52:25Z</time>
      </trkpt>
      <trkpt lat="43.6218" lon="3.76709">
        <ele>124.203697</ele>
        <time>2020-09-13T06:52:30Z</time>
      </trkpt>
      <trkpt lat="43.62187" lon="3.76684">
        <ele>124.549805</ele>
        <time>2020-09-13T06:52:35Z</time>
      </trkpt>
      <trkpt lat="43.62194" lon="3.76659">
        <ele>125.127441</ele>
        <time>2020-09-13T06:52:40Z</time>
      </trkpt>
      <trkpt lat="43.62201" lon="3.76633">
        <ele>126.909882</ele>
        <time>2020-09-13T06:52:45Z</time>
      </trkpt>
      <trkpt lat="43.62209" lon="3.76607">
        <ele>128.439255</ele>
        <time>2020-09-13T06:52:50Z</time>
      </trkpt>
      <trkpt lat="43.62217" lon="3.76579">
        <ele>129.827835</ele>
        <time>2020-09-13T06:52:55Z</time>
      </trkpt>
      <trkpt lat="43.62224" lon="3.7655">
        <ele>131.192123</ele>
        <time>2020-09-13T06:53:00Z</time>
      </trkpt>
      <trkpt lat="43.62232" lon="3.76523">
        <ele>132.400726</ele>
        <time>2020-09-13T06:53:05Z</time>
      </trkpt>
      <trkpt lat="43.62239" lon="3.76494">
        <ele>133.366196</ele>
        <time>2020-09-13T06:53:10Z</time>
      </trkpt>
      <trkpt lat="43.62246" lon="3.76463">
        <ele>134.299973</ele>
        <time>2020-09-13T06:53:15Z</time>
      </trkpt>
      <trkpt lat="43.62251" lon="3.76432">
        <ele>134.666183</ele>
        <time>2020-09-13T06:53:20Z</time>
      </trkpt>
      <trkpt lat="43.62256" lon="3.76402">
        <ele>134.870117</ele>
        <time>2020-09-13T06:53:25Z</time>
      </trkpt>
      <trkpt lat="43.62261" lon="3.76373">
        <ele>134.682114</ele>
        <time>2020-09-13T06:53:30Z</time>
      </trkpt>
      <trkpt lat="43.62265" lon="3.76343">
        <ele>133.895828</ele>
        <time>2020-09-13T06:53:35Z</time>
      </trkpt>
      <trkpt lat="43.62268" lon="3.76312">
        <ele>133.511703</ele>
        <time>2020-09-13T06:53:40Z</time>
      </trkpt>
      <trkpt lat="43.62273" lon="3.76282">
        <ele>132.673126</ele>
        <time>2020-09-13T06:53:45Z</time>
      </trkpt>
      <trkpt lat="43.62276" lon="3.76252">
        <ele>131.91243</ele>
        <time>2020-09-13T06:53:50Z</time>
      </trkpt>
      <trkpt lat="43.62276" lon="3.76221">
        <ele>131.467514</ele>
        <time>2020-09-13T06:53:55Z</time>
      </trkpt>
      <trkpt lat="43.62277" lon="3.76189">
        <ele>131.115921</ele>
        <time>2020-09-13T06:54:00Z</time>
      </trkpt>
      <trkpt lat="43.62278" lon="3.76158">
        <ele>130.559158</ele>
        <time>2020-09-13T06:54:05Z</time>
      </trkpt>
      <trkpt lat="43.62278" lon="3.76129">
        <ele>129.912125</ele>
        <time>2020-09-13T06:54:10Z</time>
      </trkpt>
      <trkpt lat="43.62278" lon="3.76099">
        <ele>128.432938</ele>
        <time>2020-09-13T06:54:15Z</time>
      </trkpt>
      <trkpt lat="43.62279" lon="3.7607">
        <ele>126.251549</ele>
        <time>2020-09-13T06:54:20Z</time>
      </trkpt>
      <trkpt lat="43.6228" lon="3.7604">
        <ele>123.473358</ele>
        <time>2020-09-13T06:54:25Z</time>
      </trkpt>
      <trkpt lat="43.6228" lon="3.76009">
        <ele>121.239967</ele>
        <time>2020-09-13T06:54:30Z</time>
      </trkpt>
      <trkpt lat="43.6228" lon="3.75978">
        <ele>117.996117</ele>
        <time>2020-09-13T06:54:35Z</time>
      </trkpt>
      <trkpt lat="43.62282" lon="3.75948">
        <ele>115.759453</ele>
        <time>2020-09-13T06:54:40Z</time>
      </trkpt>
      <trkpt lat="43.6228" lon="3.75917">
        <ele>113.88678</ele>
        <time>2020-09-13T06:54:45Z</time>
      </trkpt>
      <trkpt lat="43.62281" lon="3.75885">
        <ele>112.265129</ele>
        <time>2020-09-13T06:54:50Z</time>
      </trkpt>
      <trkpt lat="43.62283" lon="3.75857">
        <ele>111.304909</ele>
        <time>2020-09-13T06:54:55Z</time>
      </trkpt>
      <trkpt lat="43.62283" lon="3.75823">
        <ele>111.029388</ele>
        <time>2020-09-13T06:55:00Z</time>
      </trkpt>
      <trkpt lat="43.62285" lon="3.75791">
        <ele>111.008057</ele>
        <time>2020-09-13T06:55:05Z</time>
      </trkpt>
      <trkpt lat="43.62284" lon="3.75759">
        <ele>111.498383</ele>
        <time>2020-09-13T06:55:10Z</time>
      </trkpt>
      <trkpt lat="43.62283" lon="3.75727">
        <ele>112.59668</ele>
        <time>2020-09-13T06:55:15Z</time>
      </trkpt>
      <trkpt lat="43.62278" lon="3.75694">
        <ele>113.344505</ele>
        <time>2020-09-13T06:55:20Z</time>
      </trkpt>
      <trkpt lat="43.62272" lon="3.75661">
        <ele>113.823486</ele>
        <time>2020-09-13T06:55:25Z</time>
      </trkpt>
      <trkpt lat="43.62264" lon="3.75633">
        <ele>114.229866</ele>
        <time>2020-09-13T06:55:30Z</time>
      </trkpt>
      <trkpt lat="43.62254" lon="3.75603">
        <ele>114.263214</ele>
        <time>2020-09-13T06:55:35Z</time>
      </trkpt>
      <trkpt lat="43.62241" lon="3.75574">
        <ele>114.555504</ele>
        <time>2020-09-13T06:55:40Z</time>
      </trkpt>
      <trkpt lat="43.62228" lon="3.75549">
        <ele>115.829346</ele>
        <time>2020-09-13T06:55:45Z</time>
      </trkpt>
      <trkpt lat="43.62213" lon="3.75523">
        <ele>117.01416</ele>
        <time>2020-09-13T06:55:50Z</time>
      </trkpt>
      <trkpt lat="43.62197" lon="3.75498">
        <ele>117.870117</ele>
        <time>2020-09-13T06:55:55Z</time>
      </trkpt>
      <trkpt lat="43.62183" lon="3.75474">
        <ele>118.431725</ele>
        <time>2020-09-13T06:56:00Z</time>
      </trkpt>
      <trkpt lat="43.62172" lon="3.75454">
        <ele>119.119659</ele>
        <time>2020-09-13T06:56:05Z</time>
      </trkpt>
      <trkpt lat="43.62164" lon="3.75438">
        <ele>119.51606</ele>
        <time>2020-09-13T06:56:10Z</time>
      </trkpt>
      <trkpt lat="43.62154" lon="3.7542">
        <ele>119.365234</ele>
        <time>2020-09-13T06:56:15Z</time>
      </trkpt>
      <trkpt lat="43.62145" lon="3.75412">
        <ele>118.965088</ele>
        <time>2020-09-13T06:56:20Z</time>
      </trkpt>
      <trkpt lat="43.62127" lon="3.75416">
        <ele>118.069336</ele>
        <time>2020-09-13T06:56:25Z</time>
      </trkpt>
      <trkpt lat="43.62109" lon="3.75419">
        <ele>116.170662</ele>
        <time>2020-09-13T06:56:30Z</time>
      </trkpt>
      <trkpt lat="43.62093" lon="3.75418">
        <ele>114.875679</ele>
        <time>2020-09-13T06:56:35Z</time>
      </trkpt>
      <trkpt lat="43.6208" lon="3.75423">
        <ele>114.819954</ele>
        <time>2020-09-13T06:56:40Z</time>
      </trkpt>
      <trkpt lat="43.62067" lon="3.7542">
        <ele>114.889702</ele>
        <time>2020-09-13T06:56:45Z</time>
      </trkpt>
      <trkpt lat="43.62064" lon="3.75438">
        <ele>114.952812</ele>
        <time>2020-09-13T06:56:50Z</time>
      </trkpt>
      <trkpt lat="43.62065" lon="3.75462">
        <ele>114.545753</ele>
        <time>2020-09-13T06:56:55Z</time>
      </trkpt>
      <trkpt lat="43.62061" lon="3.75482">
        <ele>113.731506</ele>
        <time>2020-09-13T06:57:00Z</time>
      </trkpt>
      <trkpt lat="43.62057" lon="3.75502">
        <ele>111.499809</ele>
        <time>2020-09-13T06:57:05Z</time>
      </trkpt>
      <trkpt lat="43.6205" lon="3.75515">
        <ele>109.054756</ele>
        <time>2020-09-13T06:57:10Z</time>
      </trkpt>
      <trkpt lat="43.62038" lon="3.75509">
        <ele>107.859016</ele>
        <time>2020-09-13T06:57:15Z</time>
      </trkpt>
      <trkpt lat="43.62035" lon="3.75508">
        <ele>108.246666</ele>
        <time>2020-09-13T06:57:20Z</time>
      </trkpt>
      <trkpt lat="43.6203" lon="3.7551">
        <ele>108.55442</ele>
        <time>2020-09-13T06:57:25Z</time>
      </trkpt>
      <trkpt lat="43.62026" lon="3.75512">
        <ele>108.459343</ele>
        <time>2020-09-13T06:57:30Z</time>
      </trkpt>
      <trkpt lat="43.62009" lon="3.75511">
        <ele>108.345001</ele>
        <time>2020-09-13T06:57:55Z</time>
      </trkpt>
      <trkpt lat="43.61995" lon="3.75517">
        <ele>108.924561</ele>
        <time>2020-09-13T06:58:10Z</time>
      </trkpt>
      <trkpt lat="43.61988" lon="3.75529">
        <ele>108.773735</ele>
        <time>2020-09-13T06:58:20Z</time>
      </trkpt>
      <trkpt lat="43.61976" lon="3.75536">
        <ele>107.794487</ele>
        <time>2020-09-13T06:58:25Z</time>
      </trkpt>
      <trkpt lat="43.61969" lon="3.75538">
        <ele>106.882111</ele>
        <time>2020-09-13T06:58:30Z</time>
      </trkpt>
      <trkpt lat="43.61964" lon="3.75556">
        <ele>105.598671</ele>
        <time>2020-09-13T06:58:40Z</time>
      </trkpt>
      <trkpt lat="43.6195" lon="3.75565">
        <ele>104.785828</ele>
        <time>2020-09-13T06:58:50Z</time>
      </trkpt>
      <trkpt lat="43.61934" lon="3.75578">
        <ele>103.154541</ele>
        <time>2020-09-13T06:58:55Z</time>
      </trkpt>
      <trkpt lat="43.61919" lon="3.75597">
        <ele>101.342125</ele>
        <time>2020-09-13T06:59:00Z</time>
      </trkpt>
      <trkpt lat="43.619" lon="3.7561">
        <ele>100.137177</ele>
        <time>2020-09-13T06:59:05Z</time>
      </trkpt>
      <trkpt lat="43.61878" lon="3.75607">
        <ele>100.385811</ele>
        <time>2020-09-13T06:59:10Z</time>
      </trkpt>
      <trkpt lat="43.61858" lon="3.75601">
        <ele>100.405693</ele>
        <time>2020-09-13T06:59:15Z</time>
      </trkpt>
      <trkpt lat="43.61841" lon="3.75586">
        <ele>99.855034</ele>
        <time>2020-09-13T06:59:20Z</time>
      </trkpt>
      <trkpt lat="43.6183" lon="3.75562">
        <ele>100.144737</ele>
        <time>2020-09-13T06:59:25Z</time>
      </trkpt>
      <trkpt lat="43.61818" lon="3.75541">
        <ele>101.899879</ele>
        <time>2020-09-13T06:59:30Z</time>
      </trkpt>
      <trkpt lat="43.61803" lon="3.7552">
        <ele>103.190269</ele>
        <time>2020-09-13T06:59:35Z</time>
      </trkpt>
      <trkpt lat="43.61789" lon="3.75499">
        <ele>104.723991</ele>
        <time>2020-09-13T06:59:40Z</time>
      </trkpt>
      <trkpt lat="43.61775" lon="3.75478">
        <ele>106.538597</ele>
        <time>2020-09-13T06:59:45Z</time>
      </trkpt>
      <trkpt lat="43.61761" lon="3.75456">
        <ele>107.603874</ele>
        <time>2020-09-13T06:59:50Z</time>
      </trkpt>
      <trkpt lat="43.61747" lon="3.75435">
        <ele>108.802666</ele>
        <time>2020-09-13T06:59:55Z</time>
      </trkpt>
      <trkpt lat="43.61733" lon="3.75415">
        <ele>110.058533</ele>
        <time>2020-09-13T07:00:00Z</time>
      </trkpt>
      <trkpt lat="43.61719" lon="3.75395">
        <ele>111.318085</ele>
        <time>2020-09-13T07:00:05Z</time>
      </trkpt>
      <trkpt lat="43.61705" lon="3.75376">
        <ele>111.792931</ele>
        <time>2020-09-13T07:00:10Z</time>
      </trkpt>
      <trkpt lat="43.617" lon="3.75352">
        <ele>112.678123</ele>
        <time>2020-09-13T07:00:15Z</time>
      </trkpt>
      <trkpt lat="43.61696" lon="3.75331">
        <ele>113.948303</ele>
        <time>2020-09-13T07:00:20Z</time>
      </trkpt>
      <trkpt lat="43.61682" lon="3.75309">
        <ele>114.849487</ele>
        <time>2020-09-13T07:00:25Z</time>
      </trkpt>
      <trkpt lat="43.6167" lon="3.75289">
        <ele>117.11158</ele>
        <time>2020-09-13T07:00:30Z</time>
      </trkpt>
      <trkpt lat="43.61663" lon="3.75266">
        <ele>119.435143</ele>
        <time>2020-09-13T07:00:35Z</time>
      </trkpt>
      <trkpt lat="43.61667" lon="3.75242">
        <ele>120.394539</ele>
        <time>2020-09-13T07:00:40Z</time>
      </trkpt>
      <trkpt lat="43.61671" lon="3.7522">
        <ele>120.258781</ele>
        <time>2020-09-13T07:00:45Z</time>
      </trkpt>
      <trkpt lat="43.61683" lon="3.75208">
        <ele>119.275269</ele>
        <time>2020-09-13T07:00:50Z</time>
      </trkpt>
      <trkpt lat="43.61698" lon="3.75195">
        <ele>116.710022</ele>
        <time>2020-09-13T07:00:55Z</time>
      </trkpt>
      <trkpt lat="43.61706" lon="3.75173">
        <ele>113.316261</ele>
        <time>2020-09-13T07:01:00Z</time>
      </trkpt>
      <trkpt lat="43.61709" lon="3.75149">
        <ele>111.546326</ele>
        <time>2020-09-13T07:01:05Z</time>
      </trkpt>
      <trkpt lat="43.61702" lon="3.75133">
        <ele>111.711182</ele>
        <time>2020-09-13T07:01:10Z</time>
      </trkpt>
      <trkpt lat="43.6169" lon="3.75133">
        <ele>113.659096</ele>
        <time>2020-09-13T07:01:15Z</time>
      </trkpt>
      <trkpt lat="43.61679" lon="3.75137">
        <ele>116.097496</ele>
        <time>2020-09-13T07:01:20Z</time>
      </trkpt>
      <trkpt lat="43.61668" lon="3.75145">
        <ele>119.133141</ele>
        <time>2020-09-13T07:01:25Z</time>
      </trkpt>
      <trkpt lat="43.61659" lon="3.75156">
        <ele>121.807045</ele>
        <time>2020-09-13T07:01:30Z</time>
      </trkpt>
      <trkpt lat="43.6165" lon="3.75164">
        <ele>123.727539</ele>
        <time>2020-09-13T07:01:35Z</time>
      </trkpt>
      <trkpt lat="43.61641" lon="3.75168">
        <ele>125.511147</ele>
        <time>2020-09-13T07:01:40Z</time>
      </trkpt>
      <trkpt lat="43.6164" lon="3.75162">
        <ele>127.008568</ele>
        <time>2020-09-13T07:01:45Z</time>
      </trkpt>
      <trkpt lat="43.61643" lon="3.75154">
        <ele>128.006943</ele>
        <time>2020-09-13T07:01:50Z</time>
      </trkpt>
      <trkpt lat="43.61647" lon="3.75145">
        <ele>127.69873</ele>
        <time>2020-09-13T07:01:55Z</time>
      </trkpt>
      <trkpt lat="43.6165" lon="3.75136">
        <ele>127.212891</ele>
        <time>2020-09-13T07:02:00Z</time>
      </trkpt>
      <trkpt lat="43.61652" lon="3.75127">
        <ele>126.799644</ele>
        <time>2020-09-13T07:02:05Z</time>
      </trkpt>
      <trkpt lat="43.61653" lon="3.75117">
        <ele>126.710609</ele>
        <time>2020-09-13T07:02:10Z</time>
      </trkpt>
      <trkpt lat="43.61652" lon="3.75106">
        <ele>126.892181</ele>
        <time>2020-09-13T07:02:15Z</time>
      </trkpt>
      <trkpt lat="43.61646" lon="3.75096">
        <ele>127.657692</ele>
        <time>2020-09-13T07:02:20Z</time>
      </trkpt>
      <trkpt lat="43.61642" lon="3.75088">
        <ele>128.973312</ele>
        <time>2020-09-13T07:02:25Z</time>
      </trkpt>
      <trkpt lat="43.61636" lon="3.75081">
        <ele>130.655457</ele>
        <time>2020-09-13T07:02:30Z</time>
      </trkpt>
      <trkpt lat="43.61631" lon="3.75073">
        <ele>132.281479</ele>
        <time>2020-09-13T07:02:35Z</time>
      </trkpt>
      <trkpt lat="43.61626" lon="3.75065">
        <ele>133.641312</ele>
        <time>2020-09-13T07:02:40Z</time>
      </trkpt>
      <trkpt lat="43.61618" lon="3.75059">
        <ele>134.947189</ele>
        <time>2020-09-13T07:02:45Z</time>
      </trkpt>
      <trkpt lat="43.61611" lon="3.75052">
        <ele>136.349991</ele>
        <time>2020-09-13T07:02:50Z</time>
      </trkpt>
      <trkpt lat="43.61604" lon="3.75048">
        <ele>138.263412</ele>
        <time>2020-09-13T07:02:55Z</time>
      </trkpt>
      <trkpt lat="43.61596" lon="3.75047">
        <ele>139.831985</ele>
        <time>2020-09-13T07:03:00Z</time>
      </trkpt>
      <trkpt lat="43.61587" lon="3.75046">
        <ele>141.133896</ele>
        <time>2020-09-13T07:03:05Z</time>
      </trkpt>
      <trkpt lat="43.6158" lon="3.75047">
        <ele>142.992737</ele>
        <time>2020-09-13T07:03:10Z</time>
      </trkpt>
      <trkpt lat="43.61572" lon="3.75046">
        <ele>144.357193</ele>
        <time>2020-09-13T07:03:15Z</time>
      </trkpt>
      <trkpt lat="43.61565" lon="3.75048">
        <ele>145.674759</ele>
        <time>2020-09-13T07:03:20Z</time>
      </trkpt>
      <trkpt lat="43.61558" lon="3.75049">
        <ele>146.153763</ele>
        <time>2020-09-13T07:03:25Z</time>
      </trkpt>
      <trkpt lat="43.61551" lon="3.75047">
        <ele>146.335693</ele>
        <time>2020-09-13T07:03:30Z</time>
      </trkpt>
      <trkpt lat="43.61549" lon="3.7504">
        <ele>146.563889</ele>
        <time>2020-09-13T07:03:35Z</time>
      </trkpt>
      <trkpt lat="43.61552" lon="3.75034">
        <ele>146.821945</ele>
        <time>2020-09-13T07:03:40Z</time>
      </trkpt>
      <trkpt lat="43.61556" lon="3.75027">
        <ele>146.931152</ele>
        <time>2020-09-13T07:03:45Z</time>
      </trkpt>
      <trkpt lat="43.61559" lon="3.75016">
        <ele>147.009766</ele>
        <time>2020-09-13T07:03:50Z</time>
      </trkpt>
      <trkpt lat="43.61562" lon="3.75008">
        <ele>147.17041</ele>
        <time>2020-09-13T07:03:55Z</time>
      </trkpt>
      <trkpt lat="43.61565" lon="3.74997">
        <ele>147.404617</ele>
        <time>2020-09-13T07:04:00Z</time>
      </trkpt>
      <trkpt lat="43.61567" lon="3.74987">
        <ele>147.616867</ele>
        <time>2020-09-13T07:04:05Z</time>
      </trkpt>
      <trkpt lat="43.61571" lon="3.74975">
        <ele>147.846848</ele>
        <time>2020-09-13T07:04:10Z</time>
      </trkpt>
      <trkpt lat="43.61573" lon="3.74965">
        <ele>147.940247</ele>
        <time>2020-09-13T07:04:15Z</time>
      </trkpt>
      <trkpt lat="43.6157" lon="3.74955">
        <ele>147.920731</ele>
        <time>2020-09-13T07:04:20Z</time>
      </trkpt>
      <trkpt lat="43.61562" lon="3.74953">
        <ele>148.073837</ele>
        <time>2020-09-13T07:04:25Z</time>
      </trkpt>
      <trkpt lat="43.61554" lon="3.74958">
        <ele>148.327271</ele>
        <time>2020-09-13T07:04:30Z</time>
      </trkpt>
      <trkpt lat="43.61548" lon="3.74964">
        <ele>148.522858</ele>
        <time>2020-09-13T07:04:35Z</time>
      </trkpt>
      <trkpt lat="43.61541" lon="3.74971">
        <ele>148.767776</ele>
        <time>2020-09-13T07:04:40Z</time>
      </trkpt>
      <trkpt lat="43.61534" lon="3.74976">
        <ele>148.940643</ele>
        <time>2020-09-13T07:04:45Z</time>
      </trkpt>
      <trkpt lat="43.61529" lon="3.74983">
        <ele>149.075394</ele>
        <time>2020-09-13T07:04:50Z</time>
      </trkpt>
      <trkpt lat="43.61524" lon="3.74991">
        <ele>149.091476</ele>
        <time>2020-09-13T07:04:55Z</time>
      </trkpt>
      <trkpt lat="43.61517" lon="3.74997">
        <ele>149.039551</ele>
        <time>2020-09-13T07:05:00Z</time>
      </trkpt>
      <trkpt lat="43.61511" lon="3.75003">
        <ele>149.014648</ele>
        <time>2020-09-13T07:05:05Z</time>
      </trkpt>
      <trkpt lat="43.61506" lon="3.75008">
        <ele>149.018234</ele>
        <time>2020-09-13T07:05:10Z</time>
      </trkpt>
      <trkpt lat="43.61499" lon="3.75014">
        <ele>149.020798</ele>
        <time>2020-09-13T07:05:15Z</time>
      </trkpt>
      <trkpt lat="43.61493" lon="3.75019">
        <ele>148.753677</ele>
        <time>2020-09-13T07:05:20Z</time>
      </trkpt>
      <trkpt lat="43.61488" lon="3.75026">
        <ele>148.291931</ele>
        <time>2020-09-13T07:05:25Z</time>
      </trkpt>
      <trkpt lat="43.61481" lon="3.75034">
        <ele>147.797653</ele>
        <time>2020-09-13T07:05:30Z</time>
      </trkpt>
      <trkpt lat="43.61474" lon="3.7504">
        <ele>147.199753</ele>
        <time>2020-09-13T07:05:35Z</time>
      </trkpt>
      <trkpt lat="43.61467" lon="3.75048">
        <ele>146.588547</ele>
        <time>2020-09-13T07:05:40Z</time>
      </trkpt>
      <trkpt lat="43.61461" lon="3.75056">
        <ele>146.016434</ele>
        <time>2020-09-13T07:05:45Z</time>
      </trkpt>
      <trkpt lat="43.61454" lon="3.75062">
        <ele>145.08107</ele>
        <time>2020-09-13T07:05:50Z</time>
      </trkpt>
      <trkpt lat="43.61448" lon="3.7506">
        <ele>144.306412</ele>
        <time>2020-09-13T07:05:55Z</time>
      </trkpt>
      <trkpt lat="43.61444" lon="3.75052">
        <ele>144.046249</ele>
        <time>2020-09-13T07:06:00Z</time>
      </trkpt>
      <trkpt lat="43.61445" lon="3.75043">
        <ele>144.102402</ele>
        <time>2020-09-13T07:06:05Z</time>
      </trkpt>
      <trkpt lat="43.61445" lon="3.75034">
        <ele>144.634903</ele>
        <time>2020-09-13T07:06:10Z</time>
      </trkpt>
      <trkpt lat="43.61443" lon="3.75024">
        <ele>145.19548</ele>
        <time>2020-09-13T07:06:15Z</time>
      </trkpt>
      <trkpt lat="43.61444" lon="3.75016">
        <ele>145.603958</ele>
        <time>2020-09-13T07:06:20Z</time>
      </trkpt>
      <trkpt lat="43.61447" lon="3.75007">
        <ele>146.132294</ele>
        <time>2020-09-13T07:06:25Z</time>
      </trkpt>
      <trkpt lat="43.61447" lon="3.74999">
        <ele>146.673706</ele>
        <time>2020-09-13T07:06:30Z</time>
      </trkpt>
      <trkpt lat="43.61446" lon="3.74988">
        <ele>147.163803</ele>
        <time>2020-09-13T07:06:35Z</time>
      </trkpt>
      <trkpt lat="43.61446" lon="3.74978">
        <ele>147.668289</ele>
        <time>2020-09-13T07:06:40Z</time>
      </trkpt>
      <trkpt lat="43.61448" lon="3.74969">
        <ele>148.183395</ele>
        <time>2020-09-13T07:06:45Z</time>
      </trkpt>
      <trkpt lat="43.61448" lon="3.74959">
        <ele>148.420334</ele>
        <time>2020-09-13T07:06:50Z</time>
      </trkpt>
      <trkpt lat="43.61449" lon="3.74948">
        <ele>148.618088</ele>
        <time>2020-09-13T07:06:55Z</time>
      </trkpt>
      <trkpt lat="43.61454" lon="3.74938">
        <ele>148.811111</ele>
        <time>2020-09-13T07:07:00Z</time>
      </trkpt>
      <trkpt lat="43.61457" lon="3.74926">
        <ele>149.029617</ele>
        <time>2020-09-13T07:07:05Z</time>
      </trkpt>
      <trkpt lat="43.61455" lon="3.74914">
        <ele>149.345703</ele>
        <time>2020-09-13T07:07:10Z</time>
      </trkpt>
      <trkpt lat="43.61454" lon="3.74903">
        <ele>149.46254</ele>
        <time>2020-09-13T07:07:15Z</time>
      </trkpt>
      <trkpt lat="43.61453" lon="3.74893">
        <ele>149.322479</ele>
        <time>2020-09-13T07:07:20Z</time>
      </trkpt>
      <trkpt lat="43.61452" lon="3.7488">
        <ele>148.823685</ele>
        <time>2020-09-13T07:07:25Z</time>
      </trkpt>
      <trkpt lat="43.61449" lon="3.74868">
        <ele>148.203674</ele>
        <time>2020-09-13T07:07:30Z</time>
      </trkpt>
      <trkpt lat="43.6145" lon="3.74852">
        <ele>147.576584</ele>
        <time>2020-09-13T07:07:35Z</time>
      </trkpt>
      <trkpt lat="43.61456" lon="3.74838">
        <ele>146.875107</ele>
        <time>2020-09-13T07:07:40Z</time>
      </trkpt>
      <trkpt lat="43.61457" lon="3.74824">
        <ele>146.314163</ele>
        <time>2020-09-13T07:07:45Z</time>
      </trkpt>
      <trkpt lat="43.61452" lon="3.74808">
        <ele>145.199234</ele>
        <time>2020-09-13T07:07:50Z</time>
      </trkpt>
      <trkpt lat="43.61446" lon="3.7479">
        <ele>143.90303</ele>
        <time>2020-09-13T07:07:55Z</time>
      </trkpt>
      <trkpt lat="43.61445" lon="3.74772">
        <ele>142.502151</ele>
        <time>2020-09-13T07:08:00Z</time>
      </trkpt>
      <trkpt lat="43.61445" lon="3.74759">
        <ele>141.469223</ele>
        <time>2020-09-13T07:08:05Z</time>
      </trkpt>
      <trkpt lat="43.61449" lon="3.74743">
        <ele>140.226364</ele>
        <time>2020-09-13T07:08:10Z</time>
      </trkpt>
      <trkpt lat="43.61461" lon="3.74741">
        <ele>139.107727</ele>
        <time>2020-09-13T07:08:15Z</time>
      </trkpt>
      <trkpt lat="43.61472" lon="3.74739">
        <ele>138.692276</ele>
        <time>2020-09-13T07:08:20Z</time>
      </trkpt>
      <trkpt lat="43.61483" lon="3.74734">
        <ele>138.408051</ele>
        <time>2020-09-13T07:08:25Z</time>
      </trkpt>
      <trkpt lat="43.61493" lon="3.74735">
        <ele>138.028427</ele>
        <time>2020-09-13T07:08:30Z</time>
      </trkpt>
      <trkpt lat="43.61506" lon="3.74729">
        <ele>137.90062</ele>
        <time>2020-09-13T07:08:35Z</time>
      </trkpt>
      <trkpt lat="43.61517" lon="3.74723">
        <ele>137.251083</ele>
        <time>2020-09-13T07:08:40Z</time>
      </trkpt>
      <trkpt lat="43.61532" lon="3.74715">
        <ele>136.03418</ele>
        <time>2020-09-13T07:08:45Z</time>
      </trkpt>
      <trkpt lat="43.6155" lon="3.74708">
        <ele>134.782394</ele>
        <time>2020-09-13T07:08:50Z</time>
      </trkpt>
      <trkpt lat="43.61567" lon="3.74696">
        <ele>132.795578</ele>
        <time>2020-09-13T07:08:55Z</time>
      </trkpt>
      <trkpt lat="43.61584" lon="3.74682">
        <ele>130.806259</ele>
        <time>2020-09-13T07:09:00Z</time>
      </trkpt>
      <trkpt lat="43.61602" lon="3.74668">
        <ele>128.285385</ele>
        <time>2020-09-13T07:09:05Z</time>
      </trkpt>
      <trkpt lat="43.61612" lon="3.74645">
        <ele>125.773079</ele>
        <time>2020-09-13T07:09:10Z</time>
      </trkpt>
      <trkpt lat="43.61614" lon="3.74626">
        <ele>122.563637</ele>
        <time>2020-09-13T07:09:15Z</time>
      </trkpt>
      <trkpt lat="43.61608" lon="3.74606">
        <ele>121.213417</ele>
        <time>2020-09-13T07:09:20Z</time>
      </trkpt>
      <trkpt lat="43.616" lon="3.74588">
        <ele>120.820488</ele>
        <time>2020-09-13T07:09:25Z</time>
      </trkpt>
      <trkpt lat="43.61591" lon="3.74569">
        <ele>120.361855</ele>
        <time>2020-09-13T07:09:30Z</time>
      </trkpt>
      <trkpt lat="43.61593" lon="3.74557">
        <ele>119.727242</ele>
        <time>2020-09-13T07:09:35Z</time>
      </trkpt>
      <trkpt lat="43.61603" lon="3.74549">
        <ele>119.120064</ele>
        <time>2020-09-13T07:09:40Z</time>
      </trkpt>
      <trkpt lat="43.61615" lon="3.74541">
        <ele>118.645531</ele>
        <time>2020-09-13T07:09:45Z</time>
      </trkpt>
      <trkpt lat="43.61637" lon="3.74545">
        <ele>118.26239</ele>
        <time>2020-09-13T07:09:50Z</time>
      </trkpt>
      <trkpt lat="43.6165" lon="3.74549">
        <ele>118.114716</ele>
        <time>2020-09-13T07:09:55Z</time>
      </trkpt>
      <trkpt lat="43.61657" lon="3.74552">
        <ele>118.132484</ele>
        <time>2020-09-13T07:10:00Z</time>
      </trkpt>
      <trkpt lat="43.61663" lon="3.74559">
        <ele>118.195313</ele>
        <time>2020-09-13T07:10:05Z</time>
      </trkpt>
      <trkpt lat="43.61669" lon="3.74565">
        <ele>118.170937</ele>
        <time>2020-09-13T07:10:10Z</time>
      </trkpt>
      <trkpt lat="43.61675" lon="3.74571">
        <ele>118.015038</ele>
        <time>2020-09-13T07:10:15Z</time>
      </trkpt>
      <trkpt lat="43.61682" lon="3.74579">
        <ele>117.877419</ele>
        <time>2020-09-13T07:10:20Z</time>
      </trkpt>
      <trkpt lat="43.61688" lon="3.74585">
        <ele>117.646606</ele>
        <time>2020-09-13T07:10:25Z</time>
      </trkpt>
      <trkpt lat="43.61694" lon="3.74591">
        <ele>117.347511</ele>
        <time>2020-09-13T07:10:30Z</time>
      </trkpt>
      <trkpt lat="43.61699" lon="3.74597">
        <ele>116.969383</ele>
        <time>2020-09-13T07:10:35Z</time>
      </trkpt>
      <trkpt lat="43.6171" lon="3.74603">
        <ele>116.384972</ele>
        <time>2020-09-13T07:10:45Z</time>
      </trkpt>
      <trkpt lat="43.61718" lon="3.74611">
        <ele>115.971657</ele>
        <time>2020-09-13T07:10:55Z</time>
      </trkpt>
      <trkpt lat="43.61728" lon="3.74624">
        <ele>115.868401</ele>
        <time>2020-09-13T07:11:00Z</time>
      </trkpt>
      <trkpt lat="43.61739" lon="3.74635">
        <ele>115.72049</ele>
        <time>2020-09-13T07:11:05Z</time>
      </trkpt>
      <trkpt lat="43.61752" lon="3.7464">
        <ele>115.781685</ele>
        <time>2020-09-13T07:11:10Z</time>
      </trkpt>
      <trkpt lat="43.61764" lon="3.74641">
        <ele>116.320778</ele>
        <time>2020-09-13T07:11:15Z</time>
      </trkpt>
      <trkpt lat="43.61777" lon="3.74638">
        <ele>117.133209</ele>
        <time>2020-09-13T07:11:20Z</time>
      </trkpt>
      <trkpt lat="43.61786" lon="3.74634">
        <ele>117.857849</ele>
        <time>2020-09-13T07:11:25Z</time>
      </trkpt>
      <trkpt lat="43.61796" lon="3.74632">
        <ele>118.513252</ele>
        <time>2020-09-13T07:11:30Z</time>
      </trkpt>
      <trkpt lat="43.61806" lon="3.74634">
        <ele>119.364143</ele>
        <time>2020-09-13T07:11:35Z</time>
      </trkpt>
      <trkpt lat="43.6182" lon="3.74624">
        <ele>120.135132</ele>
        <time>2020-09-13T07:11:40Z</time>
      </trkpt>
      <trkpt lat="43.6182" lon="3.74614">
        <ele>121.943062</ele>
        <time>2020-09-13T07:11:45Z</time>
      </trkpt>
      <trkpt lat="43.61815" lon="3.74608">
        <ele>123.189842</ele>
        <time>2020-09-13T07:11:50Z</time>
      </trkpt>
      <trkpt lat="43.6181" lon="3.74602">
        <ele>123.511513</ele>
        <time>2020-09-13T07:11:55Z</time>
      </trkpt>
      <trkpt lat="43.61806" lon="3.74597">
        <ele>123.729042</ele>
        <time>2020-09-13T07:12:00Z</time>
      </trkpt>
      <trkpt lat="43.61802" lon="3.74589">
        <ele>124.005981</ele>
        <time>2020-09-13T07:12:05Z</time>
      </trkpt>
      <trkpt lat="43.618" lon="3.74582">
        <ele>124.496986</ele>
        <time>2020-09-13T07:12:10Z</time>
      </trkpt>
      <trkpt lat="43.61796" lon="3.74575">
        <ele>124.926353</ele>
        <time>2020-09-13T07:12:15Z</time>
      </trkpt>
      <trkpt lat="43.61795" lon="3.74567">
        <ele>125.485725</ele>
        <time>2020-09-13T07:12:20Z</time>
      </trkpt>
      <trkpt lat="43.61795" lon="3.7456">
        <ele>126.070618</ele>
        <time>2020-09-13T07:12:25Z</time>
      </trkpt>
      <trkpt lat="43.61792" lon="3.74555">
        <ele>127.029503</ele>
        <time>2020-09-13T07:12:30Z</time>
      </trkpt>
      <trkpt lat="43.61787" lon="3.74548">
        <ele>127.416496</ele>
        <time>2020-09-13T07:12:35Z</time>
      </trkpt>
      <trkpt lat="43.61785" lon="3.74542">
        <ele>127.734222</ele>
        <time>2020-09-13T07:12:40Z</time>
      </trkpt>
      <trkpt lat="43.61781" lon="3.74536">
        <ele>128.228561</ele>
        <time>2020-09-13T07:12:45Z</time>
      </trkpt>
      <trkpt lat="43.61775" lon="3.74533">
        <ele>128.460266</ele>
        <time>2020-09-13T07:12:50Z</time>
      </trkpt>
      <trkpt lat="43.61771" lon="3.74531">
        <ele>128.383606</ele>
        <time>2020-09-13T07:12:55Z</time>
      </trkpt>
      <trkpt lat="43.61765" lon="3.74529">
        <ele>128.059158</ele>
        <time>2020-09-13T07:13:00Z</time>
      </trkpt>
      <trkpt lat="43.61754" lon="3.74527">
        <ele>127.167915</ele>
        <time>2020-09-13T07:13:20Z</time>
      </trkpt>
      <trkpt lat="43.61747" lon="3.74527">
        <ele>126.492165</ele>
        <time>2020-09-13T07:13:30Z</time>
      </trkpt>
      <trkpt lat="43.6174" lon="3.74525">
        <ele>125.53849</ele>
        <time>2020-09-13T07:13:35Z</time>
      </trkpt>
      <trkpt lat="43.61737" lon="3.74515">
        <ele>125.028786</ele>
        <time>2020-09-13T07:13:40Z</time>
      </trkpt>
      <trkpt lat="43.6174" lon="3.74507">
        <ele>125.337227</ele>
        <time>2020-09-13T07:13:45Z</time>
      </trkpt>
      <trkpt lat="43.61741" lon="3.74499">
        <ele>126.307869</ele>
        <time>2020-09-13T07:13:50Z</time>
      </trkpt>
      <trkpt lat="43.6174" lon="3.74489">
        <ele>127.206963</ele>
        <time>2020-09-13T07:13:55Z</time>
      </trkpt>
      <trkpt lat="43.61741" lon="3.74481">
        <ele>128.092422</ele>
        <time>2020-09-13T07:14:00Z</time>
      </trkpt>
      <trkpt lat="43.61741" lon="3.74471">
        <ele>129.008133</ele>
        <time>2020-09-13T07:14:05Z</time>
      </trkpt>
      <trkpt lat="43.6174" lon="3.74462">
        <ele>129.999161</ele>
        <time>2020-09-13T07:14:10Z</time>
      </trkpt>
      <trkpt lat="43.6174" lon="3.74454">
        <ele>130.771912</ele>
        <time>2020-09-13T07:14:15Z</time>
      </trkpt>
      <trkpt lat="43.61739" lon="3.74444">
        <ele>131.598251</ele>
        <time>2020-09-13T07:14:20Z</time>
      </trkpt>
      <trkpt lat="43.61741" lon="3.74433">
        <ele>132.400665</ele>
        <time>2020-09-13T07:14:25Z</time>
      </trkpt>
      <trkpt lat="43.61741" lon="3.74422">
        <ele>133.753586</ele>
        <time>2020-09-13T07:14:30Z</time>
      </trkpt>
      <trkpt lat="43.61741" lon="3.7441">
        <ele>134.844559</ele>
        <time>2020-09-13T07:14:35Z</time>
      </trkpt>
      <trkpt lat="43.61743" lon="3.744">
        <ele>135.759888</ele>
        <time>2020-09-13T07:14:40Z</time>
      </trkpt>
      <trkpt lat="43.61744" lon="3.74389">
        <ele>136.889603</ele>
        <time>2020-09-13T07:14:45Z</time>
      </trkpt>
      <trkpt lat="43.61746" lon="3.74379">
        <ele>138.040268</ele>
        <time>2020-09-13T07:14:50Z</time>
      </trkpt>
      <trkpt lat="43.61749" lon="3.74367">
        <ele>139.228149</ele>
        <time>2020-09-13T07:14:55Z</time>
      </trkpt>
      <trkpt lat="43.61751" lon="3.7435">
        <ele>140.640701</ele>
        <time>2020-09-13T07:15:00Z</time>
      </trkpt>
      <trkpt lat="43.61752" lon="3.74337">
        <ele>141.719788</ele>
        <time>2020-09-13T07:15:05Z</time>
      </trkpt>
      <trkpt lat="43.61755" lon="3.74323">
        <ele>142.020264</ele>
        <time>2020-09-13T07:15:10Z</time>
      </trkpt>
      <trkpt lat="43.61764" lon="3.7432">
        <ele>142.616943</ele>
        <time>2020-09-13T07:15:15Z</time>
      </trkpt>
      <trkpt lat="43.61772" lon="3.74304">
        <ele>144.922195</ele>
        <time>2020-09-13T07:15:35Z</time>
      </trkpt>
      <trkpt lat="43.61779" lon="3.74295">
        <ele>145.780197</ele>
        <time>2020-09-13T07:15:45Z</time>
      </trkpt>
      <trkpt lat="43.61786" lon="3.74287">
        <ele>146.916183</ele>
        <time>2020-09-13T07:15:50Z</time>
      </trkpt>
      <trkpt lat="43.61792" lon="3.74276">
        <ele>147.789398</ele>
        <time>2020-09-13T07:15:55Z</time>
      </trkpt>
      <trkpt lat="43.61798" lon="3.74263">
        <ele>148.497559</ele>
        <time>2020-09-13T07:16:00Z</time>
      </trkpt>
      <trkpt lat="43.61805" lon="3.74248">
        <ele>149.048767</ele>
        <time>2020-09-13T07:16:05Z</time>
      </trkpt>
      <trkpt lat="43.61813" lon="3.74233">
        <ele>149.636734</ele>
        <time>2020-09-13T07:16:10Z</time>
      </trkpt>
      <trkpt lat="43.61821" lon="3.74217">
        <ele>150.234039</ele>
        <time>2020-09-13T07:16:15Z</time>
      </trkpt>
      <trkpt lat="43.6183" lon="3.74197">
        <ele>150.824219</ele>
        <time>2020-09-13T07:16:20Z</time>
      </trkpt>
      <trkpt lat="43.61837" lon="3.74177">
        <ele>151.303543</ele>
        <time>2020-09-13T07:16:25Z</time>
      </trkpt>
      <trkpt lat="43.61851" lon="3.7416">
        <ele>151.656906</ele>
        <time>2020-09-13T07:16:30Z</time>
      </trkpt>
      <trkpt lat="43.61865" lon="3.74151">
        <ele>151.894363</ele>
        <time>2020-09-13T07:16:35Z</time>
      </trkpt>
      <trkpt lat="43.61876" lon="3.74145">
        <ele>151.754562</ele>
        <time>2020-09-13T07:16:40Z</time>
      </trkpt>
      <trkpt lat="43.61881" lon="3.74129">
        <ele>151.477707</ele>
        <time>2020-09-13T07:16:55Z</time>
      </trkpt>
      <trkpt lat="43.61879" lon="3.74111">
        <ele>151.342224</ele>
        <time>2020-09-13T07:17:05Z</time>
      </trkpt>
      <trkpt lat="43.61876" lon="3.74096">
        <ele>151.211349</ele>
        <time>2020-09-13T07:17:10Z</time>
      </trkpt>
      <trkpt lat="43.61863" lon="3.74091">
        <ele>151.10939</ele>
        <time>2020-09-13T07:17:15Z</time>
      </trkpt>
      <trkpt lat="43.61848" lon="3.74078">
        <ele>151.076035</ele>
        <time>2020-09-13T07:17:20Z</time>
      </trkpt>
      <trkpt lat="43.61836" lon="3.7406">
        <ele>151.064377</ele>
        <time>2020-09-13T07:17:25Z</time>
      </trkpt>
      <trkpt lat="43.61823" lon="3.74042">
        <ele>150.82991</ele>
        <time>2020-09-13T07:17:30Z</time>
      </trkpt>
      <trkpt lat="43.61811" lon="3.74023">
        <ele>150.310318</ele>
        <time>2020-09-13T07:17:35Z</time>
      </trkpt>
      <trkpt lat="43.61797" lon="3.74002">
        <ele>150.063416</ele>
        <time>2020-09-13T07:17:40Z</time>
      </trkpt>
      <trkpt lat="43.61779" lon="3.73985">
        <ele>149.906815</ele>
        <time>2020-09-13T07:17:45Z</time>
      </trkpt>
      <trkpt lat="43.61761" lon="3.73969">
        <ele>149.272079</ele>
        <time>2020-09-13T07:17:50Z</time>
      </trkpt>
      <trkpt lat="43.61752" lon="3.73944">
        <ele>147.947037</ele>
        <time>2020-09-13T07:17:55Z</time>
      </trkpt>
      <trkpt lat="43.61755" lon="3.73919">
        <ele>147.964615</ele>
        <time>2020-09-13T07:18:00Z</time>
      </trkpt>
      <trkpt lat="43.61758" lon="3.73893">
        <ele>149.50676</ele>
        <time>2020-09-13T07:18:05Z</time>
      </trkpt>
      <trkpt lat="43.61758" lon="3.73866">
        <ele>151.545654</ele>
        <time>2020-09-13T07:18:10Z</time>
      </trkpt>
      <trkpt lat="43.61754" lon="3.73838">
        <ele>152.901306</ele>
        <time>2020-09-13T07:18:15Z</time>
      </trkpt>
      <trkpt lat="43.6175" lon="3.73812">
        <ele>153.781631</ele>
        <time>2020-09-13T07:18:20Z</time>
      </trkpt>
      <trkpt lat="43.6174" lon="3.73798">
        <ele>154.163376</ele>
        <time>2020-09-13T07:18:25Z</time>
      </trkpt>
      <trkpt lat="43.61728" lon="3.73784">
        <ele>153.295898</ele>
        <time>2020-09-13T07:18:30Z</time>
      </trkpt>
      <trkpt lat="43.6172" lon="3.73781">
        <ele>151.318924</ele>
        <time>2020-09-13T07:18:35Z</time>
      </trkpt>
      <trkpt lat="43.6172" lon="3.73781">
        <ele>151.318924</ele>
        <time>2020-09-13T07:21:00Z</time>
      </trkpt>
      <trkpt lat="43.61709" lon="3.73751">
        <ele>149.382813</ele>
        <time>2020-09-13T07:21:10Z</time>
      </trkpt>
      <trkpt lat="43.61699" lon="3.73723">
        <ele>148.642349</ele>
        <time>2020-09-13T07:21:15Z</time>
      </trkpt>
      <trkpt lat="43.61692" lon="3.73695">
        <ele>147.849075</ele>
        <time>2020-09-13T07:21:20Z</time>
      </trkpt>
      <trkpt lat="43.61671" lon="3.73684">
        <ele>147.300781</ele>
        <time>2020-09-13T07:21:25Z</time>
      </trkpt>
      <trkpt lat="43.61639" lon="3.73681">
        <ele>144.454269</ele>
        <time>2020-09-13T07:21:30Z</time>
      </trkpt>
      <trkpt lat="43.61604" lon="3.73686">
        <ele>139.115189</ele>
        <time>2020-09-13T07:21:35Z</time>
      </trkpt>
      <trkpt lat="43.61577" lon="3.73701">
        <ele>134.236389</ele>
        <time>2020-09-13T07:21:40Z</time>
      </trkpt>
      <trkpt lat="43.61564" lon="3.73725">
        <ele>129.997604</ele>
        <time>2020-09-13T07:21:45Z</time>
      </trkpt>
      <trkpt lat="43.61555" lon="3.73755">
        <ele>127.908165</ele>
        <time>2020-09-13T07:21:50Z</time>
      </trkpt>
      <trkpt lat="43.61548" lon="3.73786">
        <ele>126.687286</ele>
        <time>2020-09-13T07:21:55Z</time>
      </trkpt>
      <trkpt lat="43.61537" lon="3.73819">
        <ele>124.735222</ele>
        <time>2020-09-13T07:22:00Z</time>
      </trkpt>
      <trkpt lat="43.61524" lon="3.73838">
        <ele>122.958496</ele>
        <time>2020-09-13T07:22:05Z</time>
      </trkpt>
      <trkpt lat="43.61509" lon="3.73827">
        <ele>122.025856</ele>
        <time>2020-09-13T07:22:10Z</time>
      </trkpt>
      <trkpt lat="43.61495" lon="3.73817">
        <ele>121.741188</ele>
        <time>2020-09-13T07:22:15Z</time>
      </trkpt>
      <trkpt lat="43.61486" lon="3.73811">
        <ele>121.949059</ele>
        <time>2020-09-13T07:22:20Z</time>
      </trkpt>
      <trkpt lat="43.61479" lon="3.73803">
        <ele>122.45005</ele>
        <time>2020-09-13T07:22:25Z</time>
      </trkpt>
      <trkpt lat="43.61475" lon="3.73792">
        <ele>123.231056</ele>
        <time>2020-09-13T07:22:30Z</time>
      </trkpt>
      <trkpt lat="43.61473" lon="3.73779">
        <ele>124.36602</ele>
        <time>2020-09-13T07:22:35Z</time>
      </trkpt>
      <trkpt lat="43.61472" lon="3.73766">
        <ele>125.618645</ele>
        <time>2020-09-13T07:22:40Z</time>
      </trkpt>
      <trkpt lat="43.61471" lon="3.73753">
        <ele>126.894188</ele>
        <time>2020-09-13T07:22:45Z</time>
      </trkpt>
      <trkpt lat="43.6147" lon="3.7374">
        <ele>127.90683</ele>
        <time>2020-09-13T07:22:50Z</time>
      </trkpt>
      <trkpt lat="43.61468" lon="3.73725">
        <ele>129.403397</ele>
        <time>2020-09-13T07:22:55Z</time>
      </trkpt>
      <trkpt lat="43.61465" lon="3.73708">
        <ele>130.735611</ele>
        <time>2020-09-13T07:23:00Z</time>
      </trkpt>
      <trkpt lat="43.61462" lon="3.73691">
        <ele>132.000076</ele>
        <time>2020-09-13T07:23:05Z</time>
      </trkpt>
      <trkpt lat="43.61456" lon="3.73679">
        <ele>133.783493</ele>
        <time>2020-09-13T07:23:10Z</time>
      </trkpt>
      <trkpt lat="43.6145" lon="3.73669">
        <ele>135.481339</ele>
        <time>2020-09-13T07:23:15Z</time>
      </trkpt>
      <trkpt lat="43.61444" lon="3.73663">
        <ele>136.609375</ele>
        <time>2020-09-13T07:23:20Z</time>
      </trkpt>
      <trkpt lat="43.61437" lon="3.73665">
        <ele>137.160156</ele>
        <time>2020-09-13T07:23:25Z</time>
      </trkpt>
      <trkpt lat="43.61431" lon="3.73668">
        <ele>137.744888</ele>
        <time>2020-09-13T07:23:30Z</time>
      </trkpt>
      <trkpt lat="43.61425" lon="3.73672">
        <ele>138.354416</ele>
        <time>2020-09-13T07:23:35Z</time>
      </trkpt>
      <trkpt lat="43.61419" lon="3.73676">
        <ele>138.949966</ele>
        <time>2020-09-13T07:23:40Z</time>
      </trkpt>
      <trkpt lat="43.61413" lon="3.73679">
        <ele>139.375656</ele>
        <time>2020-09-13T07:23:45Z</time>
      </trkpt>
      <trkpt lat="43.61408" lon="3.73682">
        <ele>139.684891</ele>
        <time>2020-09-13T07:23:50Z</time>
      </trkpt>
      <trkpt lat="43.61402" lon="3.73685">
        <ele>139.926193</ele>
        <time>2020-09-13T07:23:55Z</time>
      </trkpt>
      <trkpt lat="43.61396" lon="3.73687">
        <ele>140.277344</ele>
        <time>2020-09-13T07:24:00Z</time>
      </trkpt>
      <trkpt lat="43.6139" lon="3.7369">
        <ele>140.657394</ele>
        <time>2020-09-13T07:24:05Z</time>
      </trkpt>
      <trkpt lat="43.61384" lon="3.73693">
        <ele>141.035965</ele>
        <time>2020-09-13T07:24:10Z</time>
      </trkpt>
      <trkpt lat="43.61378" lon="3.73697">
        <ele>141.335281</ele>
        <time>2020-09-13T07:24:15Z</time>
      </trkpt>
      <trkpt lat="43.61372" lon="3.73699">
        <ele>141.607742</ele>
        <time>2020-09-13T07:24:20Z</time>
      </trkpt>
      <trkpt lat="43.61366" lon="3.73703">
        <ele>142.008957</ele>
        <time>2020-09-13T07:24:25Z</time>
      </trkpt>
      <trkpt lat="43.61359" lon="3.73704">
        <ele>142.419235</ele>
        <time>2020-09-13T07:24:30Z</time>
      </trkpt>
      <trkpt lat="43.61352" lon="3.73703">
        <ele>142.842026</ele>
        <time>2020-09-13T07:24:35Z</time>
      </trkpt>
      <trkpt lat="43.61345" lon="3.73704">
        <ele>143.497284</ele>
        <time>2020-09-13T07:24:40Z</time>
      </trkpt>
      <trkpt lat="43.61338" lon="3.73705">
        <ele>144.085754</ele>
        <time>2020-09-13T07:24:45Z</time>
      </trkpt>
      <trkpt lat="43.6133" lon="3.73705">
        <ele>144.491379</ele>
        <time>2020-09-13T07:24:50Z</time>
      </trkpt>
      <trkpt lat="43.61324" lon="3.73706">
        <ele>145.036621</ele>
        <time>2020-09-13T07:24:55Z</time>
      </trkpt>
      <trkpt lat="43.61316" lon="3.73707">
        <ele>145.749832</ele>
        <time>2020-09-13T07:25:00Z</time>
      </trkpt>
      <trkpt lat="43.61309" lon="3.7371">
        <ele>146.301041</ele>
        <time>2020-09-13T07:25:05Z</time>
      </trkpt>
      <trkpt lat="43.61302" lon="3.73712">
        <ele>146.796234</ele>
        <time>2020-09-13T07:25:10Z</time>
      </trkpt>
      <trkpt lat="43.61297" lon="3.73714">
        <ele>147.224747</ele>
        <time>2020-09-13T07:25:15Z</time>
      </trkpt>
      <trkpt lat="43.61291" lon="3.73719">
        <ele>147.600204</ele>
        <time>2020-09-13T07:25:20Z</time>
      </trkpt>
      <trkpt lat="43.61284" lon="3.73723">
        <ele>147.698441</ele>
        <time>2020-09-13T07:25:25Z</time>
      </trkpt>
      <trkpt lat="43.61276" lon="3.73724">
        <ele>147.830536</ele>
        <time>2020-09-13T07:25:30Z</time>
      </trkpt>
      <trkpt lat="43.6127" lon="3.73721">
        <ele>148.156921</ele>
        <time>2020-09-13T07:25:35Z</time>
      </trkpt>
      <trkpt lat="43.61263" lon="3.73718">
        <ele>148.651443</ele>
        <time>2020-09-13T07:25:40Z</time>
      </trkpt>
      <trkpt lat="43.61256" lon="3.73715">
        <ele>149.164627</ele>
        <time>2020-09-13T07:25:45Z</time>
      </trkpt>
      <trkpt lat="43.61249" lon="3.73712">
        <ele>149.677063</ele>
        <time>2020-09-13T07:25:50Z</time>
      </trkpt>
      <trkpt lat="43.61242" lon="3.7371">
        <ele>150.08345</ele>
        <time>2020-09-13T07:25:55Z</time>
      </trkpt>
      <trkpt lat="43.61235" lon="3.73708">
        <ele>150.639023</ele>
        <time>2020-09-13T07:26:00Z</time>
      </trkpt>
      <trkpt lat="43.61228" lon="3.73706">
        <ele>151.092239</ele>
        <time>2020-09-13T07:26:05Z</time>
      </trkpt>
      <trkpt lat="43.61221" lon="3.73701">
        <ele>151.512482</ele>
        <time>2020-09-13T07:26:10Z</time>
      </trkpt>
      <trkpt lat="43.61214" lon="3.73697">
        <ele>151.882202</ele>
        <time>2020-09-13T07:26:15Z</time>
      </trkpt>
      <trkpt lat="43.61206" lon="3.73694">
        <ele>152.198792</ele>
        <time>2020-09-13T07:26:20Z</time>
      </trkpt>
      <trkpt lat="43.61199" lon="3.73692">
        <ele>152.45784</ele>
        <time>2020-09-13T07:26:25Z</time>
      </trkpt>
      <trkpt lat="43.61191" lon="3.73689">
        <ele>152.703232</ele>
        <time>2020-09-13T07:26:30Z</time>
      </trkpt>
      <trkpt lat="43.61184" lon="3.73688">
        <ele>152.92955</ele>
        <time>2020-09-13T07:26:35Z</time>
      </trkpt>
      <trkpt lat="43.61177" lon="3.73681">
        <ele>153.094162</ele>
        <time>2020-09-13T07:26:40Z</time>
      </trkpt>
      <trkpt lat="43.61172" lon="3.73673">
        <ele>153.414352</ele>
        <time>2020-09-13T07:26:45Z</time>
      </trkpt>
      <trkpt lat="43.61168" lon="3.73663">
        <ele>153.764206</ele>
        <time>2020-09-13T07:26:50Z</time>
      </trkpt>
      <trkpt lat="43.61164" lon="3.73655">
        <ele>153.972672</ele>
        <time>2020-09-13T07:26:55Z</time>
      </trkpt>
      <trkpt lat="43.61157" lon="3.73647">
        <ele>154.080383</ele>
        <time>2020-09-13T07:27:00Z</time>
      </trkpt>
      <trkpt lat="43.61149" lon="3.73641">
        <ele>154.165451</ele>
        <time>2020-09-13T07:27:05Z</time>
      </trkpt>
      <trkpt lat="43.6114" lon="3.73633">
        <ele>154.034714</ele>
        <time>2020-09-13T07:27:10Z</time>
      </trkpt>
      <trkpt lat="43.61131" lon="3.73625">
        <ele>153.901169</ele>
        <time>2020-09-13T07:27:15Z</time>
      </trkpt>
      <trkpt lat="43.6112" lon="3.73613">
        <ele>153.886719</ele>
        <time>2020-09-13T07:27:20Z</time>
      </trkpt>
      <trkpt lat="43.61118" lon="3.73597">
        <ele>154.023514</ele>
        <time>2020-09-13T07:27:25Z</time>
      </trkpt>
      <trkpt lat="43.61128" lon="3.73578">
        <ele>154.693069</ele>
        <time>2020-09-13T07:27:30Z</time>
      </trkpt>
      <trkpt lat="43.61139" lon="3.73559">
        <ele>155.713242</ele>
        <time>2020-09-13T07:27:35Z</time>
      </trkpt>
      <trkpt lat="43.61151" lon="3.73532">
        <ele>156.540771</ele>
        <time>2020-09-13T07:27:40Z</time>
      </trkpt>
      <trkpt lat="43.61145" lon="3.73504">
        <ele>157.532028</ele>
        <time>2020-09-13T07:27:45Z</time>
      </trkpt>
      <trkpt lat="43.61145" lon="3.73483">
        <ele>159.565643</ele>
        <time>2020-09-13T07:27:50Z</time>
      </trkpt>
      <trkpt lat="43.61139" lon="3.73472">
        <ele>161.235794</ele>
        <time>2020-09-13T07:27:55Z</time>
      </trkpt>
      <trkpt lat="43.61138" lon="3.73457">
        <ele>162.417999</ele>
        <time>2020-09-13T07:28:00Z</time>
      </trkpt>
      <trkpt lat="43.61142" lon="3.73446">
        <ele>163.401688</ele>
        <time>2020-09-13T07:28:05Z</time>
      </trkpt>
      <trkpt lat="43.61145" lon="3.73436">
        <ele>164.52832</ele>
        <time>2020-09-13T07:28:10Z</time>
      </trkpt>
      <trkpt lat="43.61141" lon="3.73425">
        <ele>166.147705</ele>
        <time>2020-09-13T07:28:25Z</time>
      </trkpt>
      <trkpt lat="43.61138" lon="3.73425">
        <ele>166.461426</ele>
        <time>2020-09-13T07:28:35Z</time>
      </trkpt>
      <trkpt lat="43.61124" lon="3.73423">
        <ele>166.946289</ele>
        <time>2020-09-13T07:29:20Z</time>
      </trkpt>
      <trkpt lat="43.61118" lon="3.73425">
        <ele>167.261475</ele>
        <time>2020-09-13T07:29:30Z</time>
      </trkpt>
      <trkpt lat="43.61112" lon="3.73428">
        <ele>167.473877</ele>
        <time>2020-09-13T07:29:35Z</time>
      </trkpt>
      <trkpt lat="43.61105" lon="3.73435">
        <ele>167.476563</ele>
        <time>2020-09-13T07:29:40Z</time>
      </trkpt>
      <trkpt lat="43.61097" lon="3.73436">
        <ele>167.323242</ele>
        <time>2020-09-13T07:29:45Z</time>
      </trkpt>
      <trkpt lat="43.61091" lon="3.73435">
        <ele>167.36377</ele>
        <time>2020-09-13T07:29:50Z</time>
      </trkpt>
      <trkpt lat="43.61085" lon="3.73432">
        <ele>167.701172</ele>
        <time>2020-09-13T07:29:55Z</time>
      </trkpt>
      <trkpt lat="43.6108" lon="3.73426">
        <ele>167.924393</ele>
        <time>2020-09-13T07:30:00Z</time>
      </trkpt>
      <trkpt lat="43.61076" lon="3.73422">
        <ele>168.280762</ele>
        <time>2020-09-13T07:30:05Z</time>
      </trkpt>
      <trkpt lat="43.61072" lon="3.73416">
        <ele>168.579422</ele>
        <time>2020-09-13T07:30:10Z</time>
      </trkpt>
      <trkpt lat="43.61069" lon="3.73409">
        <ele>169.057205</ele>
        <time>2020-09-13T07:30:15Z</time>
      </trkpt>
      <trkpt lat="43.61067" lon="3.73402">
        <ele>169.645096</ele>
        <time>2020-09-13T07:30:20Z</time>
      </trkpt>
      <trkpt lat="43.61061" lon="3.73398">
        <ele>170.206299</ele>
        <time>2020-09-13T07:30:25Z</time>
      </trkpt>
      <trkpt lat="43.61055" lon="3.73394">
        <ele>170.540588</ele>
        <time>2020-09-13T07:30:30Z</time>
      </trkpt>
      <trkpt lat="43.61049" lon="3.73389">
        <ele>170.753708</ele>
        <time>2020-09-13T07:30:35Z</time>
      </trkpt>
      <trkpt lat="43.61045" lon="3.73384">
        <ele>170.967163</ele>
        <time>2020-09-13T07:30:40Z</time>
      </trkpt>
      <trkpt lat="43.61042" lon="3.73378">
        <ele>171.231277</ele>
        <time>2020-09-13T07:30:45Z</time>
      </trkpt>
      <trkpt lat="43.61037" lon="3.73373">
        <ele>171.549789</ele>
        <time>2020-09-13T07:30:50Z</time>
      </trkpt>
      <trkpt lat="43.61031" lon="3.73369">
        <ele>171.753052</ele>
        <time>2020-09-13T07:30:55Z</time>
      </trkpt>
      <trkpt lat="43.61027" lon="3.73362">
        <ele>171.885544</ele>
        <time>2020-09-13T07:31:00Z</time>
      </trkpt>
      <trkpt lat="43.61023" lon="3.73356">
        <ele>172.089066</ele>
        <time>2020-09-13T07:31:05Z</time>
      </trkpt>
      <trkpt lat="43.61018" lon="3.73349">
        <ele>172.273972</ele>
        <time>2020-09-13T07:31:10Z</time>
      </trkpt>
      <trkpt lat="43.61014" lon="3.73341">
        <ele>172.063721</ele>
        <time>2020-09-13T07:31:15Z</time>
      </trkpt>
      <trkpt lat="43.61012" lon="3.73332">
        <ele>171.782837</ele>
        <time>2020-09-13T07:31:20Z</time>
      </trkpt>
      <trkpt lat="43.61011" lon="3.73322">
        <ele>171.824646</ele>
        <time>2020-09-13T07:31:25Z</time>
      </trkpt>
      <trkpt lat="43.6101" lon="3.7331">
        <ele>172.218216</ele>
        <time>2020-09-13T07:31:30Z</time>
      </trkpt>
      <trkpt lat="43.61006" lon="3.73299">
        <ele>172.707382</ele>
        <time>2020-09-13T07:31:35Z</time>
      </trkpt>
      <trkpt lat="43.61002" lon="3.73285">
        <ele>172.636475</ele>
        <time>2020-09-13T07:31:40Z</time>
      </trkpt>
      <trkpt lat="43.61005" lon="3.7327">
        <ele>172.744675</ele>
        <time>2020-09-13T07:31:45Z</time>
      </trkpt>
      <trkpt lat="43.61007" lon="3.73257">
        <ele>173.990707</ele>
        <time>2020-09-13T07:31:50Z</time>
      </trkpt>
      <trkpt lat="43.61004" lon="3.7324">
        <ele>175.534424</ele>
        <time>2020-09-13T07:31:55Z</time>
      </trkpt>
      <trkpt lat="43.61003" lon="3.73219">
        <ele>176.685059</ele>
        <time>2020-09-13T07:32:00Z</time>
      </trkpt>
      <trkpt lat="43.61003" lon="3.73201">
        <ele>178.373123</ele>
        <time>2020-09-13T07:32:05Z</time>
      </trkpt>
      <trkpt lat="43.61" lon="3.73185">
        <ele>179.963623</ele>
        <time>2020-09-13T07:32:10Z</time>
      </trkpt>
      <trkpt lat="43.60994" lon="3.73167">
        <ele>181.15538</ele>
        <time>2020-09-13T07:32:15Z</time>
      </trkpt>
      <trkpt lat="43.60986" lon="3.73149">
        <ele>181.172623</ele>
        <time>2020-09-13T07:32:20Z</time>
      </trkpt>
      <trkpt lat="43.60978" lon="3.73133">
        <ele>180.850571</ele>
        <time>2020-09-13T07:32:25Z</time>
      </trkpt>
      <trkpt lat="43.60969" lon="3.73119">
        <ele>180.388138</ele>
        <time>2020-09-13T07:32:30Z</time>
      </trkpt>
      <trkpt lat="43.60962" lon="3.73104">
        <ele>179.496399</ele>
        <time>2020-09-13T07:32:35Z</time>
      </trkpt>
      <trkpt lat="43.60952" lon="3.73087">
        <ele>178.100952</ele>
        <time>2020-09-13T07:32:40Z</time>
      </trkpt>
      <trkpt lat="43.60944" lon="3.73073">
        <ele>176.37207</ele>
        <time>2020-09-13T07:32:45Z</time>
      </trkpt>
      <trkpt lat="43.60941" lon="3.73057">
        <ele>174.625183</ele>
        <time>2020-09-13T07:32:50Z</time>
      </trkpt>
      <trkpt lat="43.60939" lon="3.73042">
        <ele>173.934647</ele>
        <time>2020-09-13T07:32:55Z</time>
      </trkpt>
      <trkpt lat="43.60936" lon="3.73025">
        <ele>173.295853</ele>
        <time>2020-09-13T07:33:00Z</time>
      </trkpt>
      <trkpt lat="43.6094" lon="3.73007">
        <ele>172.361008</ele>
        <time>2020-09-13T07:33:05Z</time>
      </trkpt>
      <trkpt lat="43.60945" lon="3.72992">
        <ele>172.177597</ele>
        <time>2020-09-13T07:33:10Z</time>
      </trkpt>
      <trkpt lat="43.60949" lon="3.72983">
        <ele>172.486862</ele>
        <time>2020-09-13T07:33:15Z</time>
      </trkpt>
      <trkpt lat="43.60949" lon="3.7297">
        <ele>172.519821</ele>
        <time>2020-09-13T07:33:20Z</time>
      </trkpt>
      <trkpt lat="43.60938" lon="3.72959">
        <ele>171.0811</ele>
        <time>2020-09-13T07:33:25Z</time>
      </trkpt>
      <trkpt lat="43.60925" lon="3.72942">
        <ele>167.876205</ele>
        <time>2020-09-13T07:33:30Z</time>
      </trkpt>
      <trkpt lat="43.60917" lon="3.72927">
        <ele>164.010559</ele>
        <time>2020-09-13T07:33:35Z</time>
      </trkpt>
      <trkpt lat="43.60906" lon="3.7291">
        <ele>161.074097</ele>
        <time>2020-09-13T07:33:40Z</time>
      </trkpt>
      <trkpt lat="43.60896" lon="3.72899">
        <ele>158.096542</ele>
        <time>2020-09-13T07:33:45Z</time>
      </trkpt>
      <trkpt lat="43.60891" lon="3.72883">
        <ele>155.797775</ele>
        <time>2020-09-13T07:33:50Z</time>
      </trkpt>
      <trkpt lat="43.6089" lon="3.72861">
        <ele>154.133698</ele>
        <time>2020-09-13T07:33:55Z</time>
      </trkpt>
      <trkpt lat="43.60888" lon="3.72842">
        <ele>152.361603</ele>
        <time>2020-09-13T07:34:00Z</time>
      </trkpt>
      <trkpt lat="43.60887" lon="3.72833">
        <ele>151.583542</ele>
        <time>2020-09-13T07:34:05Z</time>
      </trkpt>
      <trkpt lat="43.6088" lon="3.72817">
        <ele>152.187988</ele>
        <time>2020-09-13T07:34:15Z</time>
      </trkpt>
      <trkpt lat="43.60874" lon="3.72807">
        <ele>153.126953</ele>
        <time>2020-09-13T07:34:25Z</time>
      </trkpt>
      <trkpt lat="43.60869" lon="3.7279">
        <ele>154.517014</ele>
        <time>2020-09-13T07:34:30Z</time>
      </trkpt>
      <trkpt lat="43.60877" lon="3.72785">
        <ele>155.71492</ele>
        <time>2020-09-13T07:34:35Z</time>
      </trkpt>
      <trkpt lat="43.60894" lon="3.72782">
        <ele>154.904541</ele>
        <time>2020-09-13T07:34:40Z</time>
      </trkpt>
      <trkpt lat="43.60911" lon="3.72783">
        <ele>154.574951</ele>
        <time>2020-09-13T07:34:50Z</time>
      </trkpt>
      <trkpt lat="43.60929" lon="3.72783">
        <ele>155.25676</ele>
        <time>2020-09-13T07:34:55Z</time>
      </trkpt>
      <trkpt lat="43.60951" lon="3.72783">
        <ele>156.319992</ele>
        <time>2020-09-13T07:35:00Z</time>
      </trkpt>
      <trkpt lat="43.60973" lon="3.7279">
        <ele>157.613693</ele>
        <time>2020-09-13T07:35:05Z</time>
      </trkpt>
      <trkpt lat="43.61" lon="3.72792">
        <ele>159.195908</ele>
        <time>2020-09-13T07:35:10Z</time>
      </trkpt>
      <trkpt lat="43.61025" lon="3.72798">
        <ele>161.521042</ele>
        <time>2020-09-13T07:35:15Z</time>
      </trkpt>
      <trkpt lat="43.61052" lon="3.72812">
        <ele>163.959366</ele>
        <time>2020-09-13T07:35:20Z</time>
      </trkpt>
      <trkpt lat="43.61075" lon="3.72828">
        <ele>164.216629</ele>
        <time>2020-09-13T07:35:25Z</time>
      </trkpt>
      <trkpt lat="43.61092" lon="3.7285">
        <ele>163.340744</ele>
        <time>2020-09-13T07:35:30Z</time>
      </trkpt>
      <trkpt lat="43.61105" lon="3.72874">
        <ele>162.817978</ele>
        <time>2020-09-13T07:35:35Z</time>
      </trkpt>
      <trkpt lat="43.61126" lon="3.72893">
        <ele>163.684296</ele>
        <time>2020-09-13T07:35:40Z</time>
      </trkpt>
      <trkpt lat="43.61146" lon="3.72907">
        <ele>164.006866</ele>
        <time>2020-09-13T07:35:45Z</time>
      </trkpt>
      <trkpt lat="43.61162" lon="3.72923">
        <ele>163.258453</ele>
        <time>2020-09-13T07:35:50Z</time>
      </trkpt>
      <trkpt lat="43.61173" lon="3.72938">
        <ele>162.266464</ele>
        <time>2020-09-13T07:35:55Z</time>
      </trkpt>
      <trkpt lat="43.6118" lon="3.72956">
        <ele>162.04126</ele>
        <time>2020-09-13T07:36:00Z</time>
      </trkpt>
      <trkpt lat="43.61188" lon="3.72969">
        <ele>161.788589</ele>
        <time>2020-09-13T07:36:05Z</time>
      </trkpt>
      <trkpt lat="43.61196" lon="3.72983">
        <ele>161.049423</ele>
        <time>2020-09-13T07:36:10Z</time>
      </trkpt>
      <trkpt lat="43.61203" lon="3.72996">
        <ele>160.083618</ele>
        <time>2020-09-13T07:36:15Z</time>
      </trkpt>
      <trkpt lat="43.61215" lon="3.73008">
        <ele>159.923264</ele>
        <time>2020-09-13T07:36:20Z</time>
      </trkpt>
      <trkpt lat="43.61225" lon="3.7302">
        <ele>159.970779</ele>
        <time>2020-09-13T07:36:25Z</time>
      </trkpt>
      <trkpt lat="43.61234" lon="3.73033">
        <ele>159.963669</ele>
        <time>2020-09-13T07:36:30Z</time>
      </trkpt>
      <trkpt lat="43.61243" lon="3.73045">
        <ele>160.22728</ele>
        <time>2020-09-13T07:36:35Z</time>
      </trkpt>
      <trkpt lat="43.6125" lon="3.73055">
        <ele>160.435104</ele>
        <time>2020-09-13T07:36:40Z</time>
      </trkpt>
      <trkpt lat="43.61256" lon="3.73065">
        <ele>160.58345</ele>
        <time>2020-09-13T07:36:45Z</time>
      </trkpt>
      <trkpt lat="43.61262" lon="3.73075">
        <ele>160.876236</ele>
        <time>2020-09-13T07:36:50Z</time>
      </trkpt>
      <trkpt lat="43.61269" lon="3.73088">
        <ele>161.253799</ele>
        <time>2020-09-13T07:36:55Z</time>
      </trkpt>
      <trkpt lat="43.61273" lon="3.73103">
        <ele>161.754593</ele>
        <time>2020-09-13T07:37:00Z</time>
      </trkpt>
      <trkpt lat="43.61276" lon="3.73117">
        <ele>162.519958</ele>
        <time>2020-09-13T07:37:05Z</time>
      </trkpt>
      <trkpt lat="43.61277" lon="3.73128">
        <ele>163.466812</ele>
        <time>2020-09-13T07:37:10Z</time>
      </trkpt>
      <trkpt lat="43.61278" lon="3.73137">
        <ele>164.049774</ele>
        <time>2020-09-13T07:37:15Z</time>
      </trkpt>
      <trkpt lat="43.61278" lon="3.73147">
        <ele>164.160538</ele>
        <time>2020-09-13T07:37:20Z</time>
      </trkpt>
      <trkpt lat="43.61279" lon="3.73155">
        <ele>164.223221</ele>
        <time>2020-09-13T07:37:25Z</time>
      </trkpt>
      <trkpt lat="43.61278" lon="3.73163">
        <ele>164.397171</ele>
        <time>2020-09-13T07:37:30Z</time>
      </trkpt>
      <trkpt lat="43.61277" lon="3.73171">
        <ele>164.547592</ele>
        <time>2020-09-13T07:37:35Z</time>
      </trkpt>
      <trkpt lat="43.61275" lon="3.73178">
        <ele>164.910156</ele>
        <time>2020-09-13T07:37:40Z</time>
      </trkpt>
      <trkpt lat="43.61271" lon="3.73184">
        <ele>165.379013</ele>
        <time>2020-09-13T07:37:45Z</time>
      </trkpt>
      <trkpt lat="43.61269" lon="3.7319">
        <ele>165.959839</ele>
        <time>2020-09-13T07:37:50Z</time>
      </trkpt>
      <trkpt lat="43.61267" lon="3.73198">
        <ele>166.488052</ele>
        <time>2020-09-13T07:37:55Z</time>
      </trkpt>
      <trkpt lat="43.61263" lon="3.73202">
        <ele>166.89827</ele>
        <time>2020-09-13T07:38:00Z</time>
      </trkpt>
      <trkpt lat="43.6126" lon="3.73207">
        <ele>167.360184</ele>
        <time>2020-09-13T07:38:05Z</time>
      </trkpt>
      <trkpt lat="43.61255" lon="3.73211">
        <ele>167.82666</ele>
        <time>2020-09-13T07:38:10Z</time>
      </trkpt>
      <trkpt lat="43.61251" lon="3.73215">
        <ele>168.455078</ele>
        <time>2020-09-13T07:38:15Z</time>
      </trkpt>
      <trkpt lat="43.61247" lon="3.73218">
        <ele>169.041092</ele>
        <time>2020-09-13T07:38:20Z</time>
      </trkpt>
      <trkpt lat="43.61242" lon="3.73222">
        <ele>169.556717</ele>
        <time>2020-09-13T07:38:25Z</time>
      </trkpt>
      <trkpt lat="43.61237" lon="3.73224">
        <ele>170.330399</ele>
        <time>2020-09-13T07:38:30Z</time>
      </trkpt>
      <trkpt lat="43.61231" lon="3.73224">
        <ele>171.163254</ele>
        <time>2020-09-13T07:38:35Z</time>
      </trkpt>
      <trkpt lat="43.61224" lon="3.73222">
        <ele>172.124344</ele>
        <time>2020-09-13T07:38:40Z</time>
      </trkpt>
      <trkpt lat="43.61219" lon="3.73217">
        <ele>173.003174</ele>
        <time>2020-09-13T07:38:45Z</time>
      </trkpt>
      <trkpt lat="43.61212" lon="3.73212">
        <ele>173.742493</ele>
        <time>2020-09-13T07:38:50Z</time>
      </trkpt>
      <trkpt lat="43.61206" lon="3.73208">
        <ele>174.514389</ele>
        <time>2020-09-13T07:38:55Z</time>
      </trkpt>
      <trkpt lat="43.612" lon="3.73203">
        <ele>175.343079</ele>
        <time>2020-09-13T07:39:00Z</time>
      </trkpt>
      <trkpt lat="43.61194" lon="3.73198">
        <ele>176.073608</ele>
        <time>2020-09-13T07:39:05Z</time>
      </trkpt>
      <trkpt lat="43.61189" lon="3.73192">
        <ele>176.805161</ele>
        <time>2020-09-13T07:39:10Z</time>
      </trkpt>
      <trkpt lat="43.61183" lon="3.73188">
        <ele>177.610397</ele>
        <time>2020-09-13T07:39:15Z</time>
      </trkpt>
      <trkpt lat="43.61177" lon="3.73184">
        <ele>178.247238</ele>
        <time>2020-09-13T07:39:20Z</time>
      </trkpt>
      <trkpt lat="43.61173" lon="3.73179">
        <ele>178.790466</ele>
        <time>2020-09-13T07:39:25Z</time>
      </trkpt>
      <trkpt lat="43.61168" lon="3.73175">
        <ele>179.215408</ele>
        <time>2020-09-13T07:39:30Z</time>
      </trkpt>
      <trkpt lat="43.61164" lon="3.7317">
        <ele>179.784073</ele>
        <time>2020-09-13T07:39:35Z</time>
      </trkpt>
      <trkpt lat="43.61158" lon="3.73166">
        <ele>180.264511</ele>
        <time>2020-09-13T07:39:40Z</time>
      </trkpt>
      <trkpt lat="43.61153" lon="3.73162">
        <ele>180.750854</ele>
        <time>2020-09-13T07:39:45Z</time>
      </trkpt>
      <trkpt lat="43.61148" lon="3.73157">
        <ele>181.259506</ele>
        <time>2020-09-13T07:39:50Z</time>
      </trkpt>
      <trkpt lat="43.61143" lon="3.73152">
        <ele>181.668411</ele>
        <time>2020-09-13T07:39:55Z</time>
      </trkpt>
      <trkpt lat="43.61139" lon="3.73148">
        <ele>182.199905</ele>
        <time>2020-09-13T07:40:00Z</time>
      </trkpt>
      <trkpt lat="43.61134" lon="3.73143">
        <ele>182.678955</ele>
        <time>2020-09-13T07:40:05Z</time>
      </trkpt>
      <trkpt lat="43.61129" lon="3.73139">
        <ele>183.188095</ele>
        <time>2020-09-13T07:40:10Z</time>
      </trkpt>
      <trkpt lat="43.61125" lon="3.73134">
        <ele>183.820007</ele>
        <time>2020-09-13T07:40:15Z</time>
      </trkpt>
      <trkpt lat="43.61121" lon="3.73128">
        <ele>184.444748</ele>
        <time>2020-09-13T07:40:20Z</time>
      </trkpt>
      <trkpt lat="43.61115" lon="3.73122">
        <ele>185.018509</ele>
        <time>2020-09-13T07:40:25Z</time>
      </trkpt>
      <trkpt lat="43.6111" lon="3.73118">
        <ele>185.588272</ele>
        <time>2020-09-13T07:40:30Z</time>
      </trkpt>
      <trkpt lat="43.61108" lon="3.73123">
        <ele>186.226196</ele>
        <time>2020-09-13T07:40:35Z</time>
      </trkpt>
      <trkpt lat="43.61115" lon="3.73123">
        <ele>186.487106</ele>
        <time>2020-09-13T07:40:40Z</time>
      </trkpt>
      <trkpt lat="43.61119" lon="3.73138">
        <ele>185.909958</ele>
        <time>2020-09-13T07:40:45Z</time>
      </trkpt>
      <trkpt lat="43.61115" lon="3.73156">
        <ele>185.195419</ele>
        <time>2020-09-13T07:40:50Z</time>
      </trkpt>
      <trkpt lat="43.61105" lon="3.73175">
        <ele>185.214279</ele>
        <time>2020-09-13T07:40:55Z</time>
      </trkpt>
      <trkpt lat="43.61096" lon="3.73193">
        <ele>185.554871</ele>
        <time>2020-09-13T07:41:00Z</time>
      </trkpt>
      <trkpt lat="43.61088" lon="3.73212">
        <ele>185.565109</ele>
        <time>2020-09-13T07:41:05Z</time>
      </trkpt>
      <trkpt lat="43.6108" lon="3.73232">
        <ele>184.879868</ele>
        <time>2020-09-13T07:41:10Z</time>
      </trkpt>
      <trkpt lat="43.61074" lon="3.73255">
        <ele>183.534546</ele>
        <time>2020-09-13T07:41:15Z</time>
      </trkpt>
      <trkpt lat="43.61079" lon="3.73279">
        <ele>181.844849</ele>
        <time>2020-09-13T07:41:20Z</time>
      </trkpt>
      <trkpt lat="43.61093" lon="3.7331">
        <ele>180.223312</ele>
        <time>2020-09-13T07:41:25Z</time>
      </trkpt>
      <trkpt lat="43.61105" lon="3.73341">
        <ele>178.401367</ele>
        <time>2020-09-13T07:41:30Z</time>
      </trkpt>
      <trkpt lat="43.61117" lon="3.73367">
        <ele>176.182693</ele>
        <time>2020-09-13T07:41:35Z</time>
      </trkpt>
      <trkpt lat="43.61126" lon="3.73384">
        <ele>172.91748</ele>
        <time>2020-09-13T07:41:40Z</time>
      </trkpt>
      <trkpt lat="43.61141" lon="3.73396">
        <ele>170.912354</ele>
        <time>2020-09-13T07:41:45Z</time>
      </trkpt>
      <trkpt lat="43.6115" lon="3.73411">
        <ele>169.208252</ele>
        <time>2020-09-13T07:41:50Z</time>
      </trkpt>
      <trkpt lat="43.61158" lon="3.73426">
        <ele>167.477051</ele>
        <time>2020-09-13T07:41:55Z</time>
      </trkpt>
      <trkpt lat="43.61159" lon="3.7345">
        <ele>165.776855</ele>
        <time>2020-09-13T07:42:00Z</time>
      </trkpt>
      <trkpt lat="43.61165" lon="3.73478">
        <ele>163.693604</ele>
        <time>2020-09-13T07:42:05Z</time>
      </trkpt>
      <trkpt lat="43.61172" lon="3.73509">
        <ele>160.909607</ele>
        <time>2020-09-13T07:42:10Z</time>
      </trkpt>
      <trkpt lat="43.61176" lon="3.73535">
        <ele>158.029907</ele>
        <time>2020-09-13T07:42:15Z</time>
      </trkpt>
      <trkpt lat="43.6118" lon="3.73561">
        <ele>155.978073</ele>
        <time>2020-09-13T07:42:20Z</time>
      </trkpt>
      <trkpt lat="43.61181" lon="3.73585">
        <ele>154.948669</ele>
        <time>2020-09-13T07:42:25Z</time>
      </trkpt>
      <trkpt lat="43.61185" lon="3.73606">
        <ele>154.499924</ele>
        <time>2020-09-13T07:42:30Z</time>
      </trkpt>
      <trkpt lat="43.61194" lon="3.73625">
        <ele>154.025696</ele>
        <time>2020-09-13T07:42:35Z</time>
      </trkpt>
      <trkpt lat="43.61188" lon="3.73645">
        <ele>153.675583</ele>
        <time>2020-09-13T07:42:40Z</time>
      </trkpt>
      <trkpt lat="43.61184" lon="3.73661">
        <ele>153.647797</ele>
        <time>2020-09-13T07:42:45Z</time>
      </trkpt>
      <trkpt lat="43.61178" lon="3.73676">
        <ele>153.70314</ele>
        <time>2020-09-13T07:42:50Z</time>
      </trkpt>
      <trkpt lat="43.61174" lon="3.7369">
        <ele>153.633316</ele>
        <time>2020-09-13T07:42:55Z</time>
      </trkpt>
      <trkpt lat="43.61164" lon="3.73708">
        <ele>153.279373</ele>
        <time>2020-09-13T07:43:00Z</time>
      </trkpt>
      <trkpt lat="43.61151" lon="3.73726">
        <ele>152.986374</ele>
        <time>2020-09-13T07:43:05Z</time>
      </trkpt>
      <trkpt lat="43.61137" lon="3.73742">
        <ele>152.172256</ele>
        <time>2020-09-13T07:43:10Z</time>
      </trkpt>
      <trkpt lat="43.61123" lon="3.73756">
        <ele>151.033646</ele>
        <time>2020-09-13T07:43:15Z</time>
      </trkpt>
      <trkpt lat="43.61109" lon="3.73771">
        <ele>150.038208</ele>
        <time>2020-09-13T07:43:20Z</time>
      </trkpt>
      <trkpt lat="43.61099" lon="3.73796">
        <ele>149.177628</ele>
        <time>2020-09-13T07:43:25Z</time>
      </trkpt>
      <trkpt lat="43.61086" lon="3.73839">
        <ele>148.423447</ele>
        <time>2020-09-13T07:43:30Z</time>
      </trkpt>
      <trkpt lat="43.61069" lon="3.73878">
        <ele>146.500687</ele>
        <time>2020-09-13T07:43:35Z</time>
      </trkpt>
      <trkpt lat="43.61062" lon="3.73881">
        <ele>144.31041</ele>
        <time>2020-09-13T07:43:40Z</time>
      </trkpt>
      <trkpt lat="43.61058" lon="3.73879">
        <ele>143.406174</ele>
        <time>2020-09-13T07:43:45Z</time>
      </trkpt>
      <trkpt lat="43.6105" lon="3.73861">
        <ele>143.517502</ele>
        <time>2020-09-13T07:43:50Z</time>
      </trkpt>
      <trkpt lat="43.6104" lon="3.73842">
        <ele>144.194199</ele>
        <time>2020-09-13T07:43:55Z</time>
      </trkpt>
      <trkpt lat="43.61027" lon="3.73826">
        <ele>144.910904</ele>
        <time>2020-09-13T07:44:00Z</time>
      </trkpt>
      <trkpt lat="43.61008" lon="3.73813">
        <ele>145.372742</ele>
        <time>2020-09-13T07:44:05Z</time>
      </trkpt>
      <trkpt lat="43.60988" lon="3.73821">
        <ele>145.760208</ele>
        <time>2020-09-13T07:44:10Z</time>
      </trkpt>
      <trkpt lat="43.6097" lon="3.73842">
        <ele>145.624619</ele>
        <time>2020-09-13T07:44:15Z</time>
      </trkpt>
      <trkpt lat="43.60953" lon="3.73861">
        <ele>145.021317</ele>
        <time>2020-09-13T07:44:20Z</time>
      </trkpt>
      <trkpt lat="43.60934" lon="3.7386">
        <ele>144.567154</ele>
        <time>2020-09-13T07:44:25Z</time>
      </trkpt>
      <trkpt lat="43.60916" lon="3.73853">
        <ele>144.381668</ele>
        <time>2020-09-13T07:44:30Z</time>
      </trkpt>
      <trkpt lat="43.60899" lon="3.73839">
        <ele>144.346191</ele>
        <time>2020-09-13T07:44:35Z</time>
      </trkpt>
      <trkpt lat="43.60881" lon="3.73824">
        <ele>144.231918</ele>
        <time>2020-09-13T07:44:40Z</time>
      </trkpt>
      <trkpt lat="43.60874" lon="3.73842">
        <ele>143.847763</ele>
        <time>2020-09-13T07:44:45Z</time>
      </trkpt>
      <trkpt lat="43.60872" lon="3.73871">
        <ele>143.1819</ele>
        <time>2020-09-13T07:44:50Z</time>
      </trkpt>
      <trkpt lat="43.60871" lon="3.7391">
        <ele>143.146439</ele>
        <time>2020-09-13T07:44:55Z</time>
      </trkpt>
      <trkpt lat="43.6087" lon="3.73967">
        <ele>142.999893</ele>
        <time>2020-09-13T07:45:00Z</time>
      </trkpt>
      <trkpt lat="43.60867" lon="3.74029">
        <ele>141.764786</ele>
        <time>2020-09-13T07:45:05Z</time>
      </trkpt>
      <trkpt lat="43.60843" lon="3.74066">
        <ele>138.336838</ele>
        <time>2020-09-13T07:45:10Z</time>
      </trkpt>
      <trkpt lat="43.6081" lon="3.74094">
        <ele>135.659103</ele>
        <time>2020-09-13T07:45:15Z</time>
      </trkpt>
      <trkpt lat="43.60778" lon="3.74122">
        <ele>133.72345</ele>
        <time>2020-09-13T07:45:20Z</time>
      </trkpt>
      <trkpt lat="43.6075" lon="3.74149">
        <ele>132.231003</ele>
        <time>2020-09-13T07:45:25Z</time>
      </trkpt>
      <trkpt lat="43.60729" lon="3.74183">
        <ele>131.107437</ele>
        <time>2020-09-13T07:45:30Z</time>
      </trkpt>
      <trkpt lat="43.60708" lon="3.74226">
        <ele>129.439865</ele>
        <time>2020-09-13T07:45:35Z</time>
      </trkpt>
      <trkpt lat="43.60695" lon="3.74279">
        <ele>127.773193</ele>
        <time>2020-09-13T07:45:40Z</time>
      </trkpt>
      <trkpt lat="43.60685" lon="3.74336">
        <ele>125.412354</ele>
        <time>2020-09-13T07:45:45Z</time>
      </trkpt>
      <trkpt lat="43.60672" lon="3.74392">
        <ele>123.045982</ele>
        <time>2020-09-13T07:45:50Z</time>
      </trkpt>
      <trkpt lat="43.60658" lon="3.74444">
        <ele>119.947731</ele>
        <time>2020-09-13T07:45:55Z</time>
      </trkpt>
      <trkpt lat="43.60646" lon="3.74492">
        <ele>118.257141</ele>
        <time>2020-09-13T07:46:00Z</time>
      </trkpt>
      <trkpt lat="43.60637" lon="3.7454">
        <ele>117.164459</ele>
        <time>2020-09-13T07:46:05Z</time>
      </trkpt>
      <trkpt lat="43.60622" lon="3.74586">
        <ele>116.018829</ele>
        <time>2020-09-13T07:46:10Z</time>
      </trkpt>
      <trkpt lat="43.60608" lon="3.74628">
        <ele>115.066986</ele>
        <time>2020-09-13T07:46:15Z</time>
      </trkpt>
      <trkpt lat="43.60598" lon="3.74665">
        <ele>113.981804</ele>
        <time>2020-09-13T07:46:20Z</time>
      </trkpt>
      <trkpt lat="43.6059" lon="3.74699">
        <ele>112.574745</ele>
        <time>2020-09-13T07:46:25Z</time>
      </trkpt>
      <trkpt lat="43.60591" lon="3.74737">
        <ele>111.305275</ele>
        <time>2020-09-13T07:46:30Z</time>
      </trkpt>
      <trkpt lat="43.6059" lon="3.74776">
        <ele>110.228516</ele>
        <time>2020-09-13T07:46:35Z</time>
      </trkpt>
      <trkpt lat="43.60582" lon="3.7482">
        <ele>109.114227</ele>
        <time>2020-09-13T07:46:40Z</time>
      </trkpt>
      <trkpt lat="43.60567" lon="3.7486">
        <ele>107.772514</ele>
        <time>2020-09-13T07:46:45Z</time>
      </trkpt>
      <trkpt lat="43.60556" lon="3.74908">
        <ele>106.217445</ele>
        <time>2020-09-13T07:46:50Z</time>
      </trkpt>
      <trkpt lat="43.60541" lon="3.74957">
        <ele>104.778664</ele>
        <time>2020-09-13T07:46:55Z</time>
      </trkpt>
      <trkpt lat="43.60512" lon="3.74992">
        <ele>103.353798</ele>
        <time>2020-09-13T07:47:00Z</time>
      </trkpt>
      <trkpt lat="43.60484" lon="3.75017">
        <ele>102.35836</ele>
        <time>2020-09-13T07:47:05Z</time>
      </trkpt>
      <trkpt lat="43.60467" lon="3.75029">
        <ele>101.563988</ele>
        <time>2020-09-13T07:47:10Z</time>
      </trkpt>
      <trkpt lat="43.60457" lon="3.75035">
        <ele>100.966545</ele>
        <time>2020-09-13T07:47:15Z</time>
      </trkpt>
      <trkpt lat="43.60445" lon="3.75054">
        <ele>100.191437</ele>
        <time>2020-09-13T07:47:20Z</time>
      </trkpt>
      <trkpt lat="43.60433" lon="3.75075">
        <ele>99.329079</ele>
        <time>2020-09-13T07:47:25Z</time>
      </trkpt>
      <trkpt lat="43.60418" lon="3.75098">
        <ele>98.532166</ele>
        <time>2020-09-13T07:47:30Z</time>
      </trkpt>
      <trkpt lat="43.60402" lon="3.75122">
        <ele>97.725212</ele>
        <time>2020-09-13T07:47:35Z</time>
      </trkpt>
      <trkpt lat="43.60384" lon="3.75145">
        <ele>97.045372</ele>
        <time>2020-09-13T07:47:40Z</time>
      </trkpt>
      <trkpt lat="43.60366" lon="3.75169">
        <ele>96.641113</ele>
        <time>2020-09-13T07:47:45Z</time>
      </trkpt>
      <trkpt lat="43.60349" lon="3.75195">
        <ele>96.155403</ele>
        <time>2020-09-13T07:47:50Z</time>
      </trkpt>
      <trkpt lat="43.60329" lon="3.75222">
        <ele>96.162804</ele>
        <time>2020-09-13T07:47:55Z</time>
      </trkpt>
      <trkpt lat="43.60311" lon="3.75249">
        <ele>96.903412</ele>
        <time>2020-09-13T07:48:00Z</time>
      </trkpt>
      <trkpt lat="43.60292" lon="3.75276">
        <ele>98.967247</ele>
        <time>2020-09-13T07:48:05Z</time>
      </trkpt>
      <trkpt lat="43.60275" lon="3.75303">
        <ele>101.562553</ele>
        <time>2020-09-13T07:48:10Z</time>
      </trkpt>
      <trkpt lat="43.60276" lon="3.75338">
        <ele>104.634697</ele>
        <time>2020-09-13T07:48:15Z</time>
      </trkpt>
      <trkpt lat="43.60277" lon="3.75376">
        <ele>106.971222</ele>
        <time>2020-09-13T07:48:20Z</time>
      </trkpt>
      <trkpt lat="43.6028" lon="3.75416">
        <ele>108.007301</ele>
        <time>2020-09-13T07:48:25Z</time>
      </trkpt>
      <trkpt lat="43.60303" lon="3.75442">
        <ele>108.311035</ele>
        <time>2020-09-13T07:48:30Z</time>
      </trkpt>
      <trkpt lat="43.60314" lon="3.75479">
        <ele>107.100372</ele>
        <time>2020-09-13T07:48:35Z</time>
      </trkpt>
      <trkpt lat="43.6031" lon="3.75523">
        <ele>105.984497</ele>
        <time>2020-09-13T07:48:40Z</time>
      </trkpt>
      <trkpt lat="43.6031" lon="3.75567">
        <ele>105.795158</ele>
        <time>2020-09-13T07:48:45Z</time>
      </trkpt>
      <trkpt lat="43.60313" lon="3.75612">
        <ele>105.197716</ele>
        <time>2020-09-13T07:48:50Z</time>
      </trkpt>
      <trkpt lat="43.60302" lon="3.75658">
        <ele>104.335182</ele>
        <time>2020-09-13T07:48:55Z</time>
      </trkpt>
      <trkpt lat="43.60285" lon="3.75702">
        <ele>103.734802</ele>
        <time>2020-09-13T07:49:00Z</time>
      </trkpt>
      <trkpt lat="43.60267" lon="3.75744">
        <ele>103.313782</ele>
        <time>2020-09-13T07:49:05Z</time>
      </trkpt>
      <trkpt lat="43.60252" lon="3.75784">
        <ele>103.122009</ele>
        <time>2020-09-13T07:49:10Z</time>
      </trkpt>
      <trkpt lat="43.60235" lon="3.75819">
        <ele>103.236328</ele>
        <time>2020-09-13T07:49:15Z</time>
      </trkpt>
      <trkpt lat="43.6021" lon="3.75844">
        <ele>103.435493</ele>
        <time>2020-09-13T07:49:20Z</time>
      </trkpt>
      <trkpt lat="43.60181" lon="3.75868">
        <ele>103.480309</ele>
        <time>2020-09-13T07:49:25Z</time>
      </trkpt>
      <trkpt lat="43.60151" lon="3.75885">
        <ele>104.155769</ele>
        <time>2020-09-13T07:49:30Z</time>
      </trkpt>
      <trkpt lat="43.6012" lon="3.75908">
        <ele>105.921349</ele>
        <time>2020-09-13T07:49:35Z</time>
      </trkpt>
      <trkpt lat="43.60096" lon="3.75946">
        <ele>107.377014</ele>
        <time>2020-09-13T07:49:40Z</time>
      </trkpt>
      <trkpt lat="43.60082" lon="3.75991">
        <ele>107.625557</ele>
        <time>2020-09-13T07:49:45Z</time>
      </trkpt>
      <trkpt lat="43.6007" lon="3.76033">
        <ele>106.862</ele>
        <time>2020-09-13T07:49:50Z</time>
      </trkpt>
      <trkpt lat="43.60064" lon="3.76072">
        <ele>106.217201</ele>
        <time>2020-09-13T07:49:55Z</time>
      </trkpt>
      <trkpt lat="43.60072" lon="3.76114">
        <ele>106.039589</ele>
        <time>2020-09-13T07:50:00Z</time>
      </trkpt>
      <trkpt lat="43.60093" lon="3.76147">
        <ele>105.303596</ele>
        <time>2020-09-13T07:50:05Z</time>
      </trkpt>
      <trkpt lat="43.60112" lon="3.76177">
        <ele>103.847168</ele>
        <time>2020-09-13T07:50:10Z</time>
      </trkpt>
      <trkpt lat="43.6013" lon="3.76203">
        <ele>102.022301</ele>
        <time>2020-09-13T07:50:15Z</time>
      </trkpt>
      <trkpt lat="43.60143" lon="3.7624">
        <ele>100.329155</ele>
        <time>2020-09-13T07:50:20Z</time>
      </trkpt>
      <trkpt lat="43.60148" lon="3.76285">
        <ele>98.923775</ele>
        <time>2020-09-13T07:50:25Z</time>
      </trkpt>
      <trkpt lat="43.60143" lon="3.76323">
        <ele>97.78949</ele>
        <time>2020-09-13T07:50:30Z</time>
      </trkpt>
      <trkpt lat="43.6013" lon="3.76353">
        <ele>97.265594</ele>
        <time>2020-09-13T07:50:35Z</time>
      </trkpt>
      <trkpt lat="43.60109" lon="3.76395">
        <ele>97.129585</ele>
        <time>2020-09-13T07:50:40Z</time>
      </trkpt>
      <trkpt lat="43.60091" lon="3.76435">
        <ele>96.952354</ele>
        <time>2020-09-13T07:50:45Z</time>
      </trkpt>
      <trkpt lat="43.60062" lon="3.7647">
        <ele>96.234505</ele>
        <time>2020-09-13T07:50:50Z</time>
      </trkpt>
      <trkpt lat="43.60034" lon="3.76497">
        <ele>94.5401</ele>
        <time>2020-09-13T07:50:55Z</time>
      </trkpt>
      <trkpt lat="43.60008" lon="3.76523">
        <ele>94.594261</ele>
        <time>2020-09-13T07:51:00Z</time>
      </trkpt>
      <trkpt lat="43.59985" lon="3.76559">
        <ele>95.733551</ele>
        <time>2020-09-13T07:51:05Z</time>
      </trkpt>
      <trkpt lat="43.59968" lon="3.76608">
        <ele>97.361092</ele>
        <time>2020-09-13T07:51:10Z</time>
      </trkpt>
      <trkpt lat="43.5996" lon="3.76655">
        <ele>97.589714</ele>
        <time>2020-09-13T07:51:15Z</time>
      </trkpt>
      <trkpt lat="43.59951" lon="3.76705">
        <ele>96.836159</ele>
        <time>2020-09-13T07:51:20Z</time>
      </trkpt>
      <trkpt lat="43.59944" lon="3.76752">
        <ele>95.691399</ele>
        <time>2020-09-13T07:51:25Z</time>
      </trkpt>
      <trkpt lat="43.59935" lon="3.76783">
        <ele>94.445274</ele>
        <time>2020-09-13T07:51:30Z</time>
      </trkpt>
      <trkpt lat="43.59927" lon="3.76814">
        <ele>93.607208</ele>
        <time>2020-09-13T07:51:35Z</time>
      </trkpt>
      <trkpt lat="43.59918" lon="3.76853">
        <ele>92.704308</ele>
        <time>2020-09-13T07:51:40Z</time>
      </trkpt>
      <trkpt lat="43.59912" lon="3.76896">
        <ele>91.424187</ele>
        <time>2020-09-13T07:51:45Z</time>
      </trkpt>
      <trkpt lat="43.59899" lon="3.76943">
        <ele>89.611908</ele>
        <time>2020-09-13T07:51:50Z</time>
      </trkpt>
      <trkpt lat="43.59885" lon="3.76985">
        <ele>87.583717</ele>
        <time>2020-09-13T07:51:55Z</time>
      </trkpt>
      <trkpt lat="43.59863" lon="3.77023">
        <ele>84.270851</ele>
        <time>2020-09-13T07:52:00Z</time>
      </trkpt>
      <trkpt lat="43.59835" lon="3.77059">
        <ele>81.915085</ele>
        <time>2020-09-13T07:52:05Z</time>
      </trkpt>
      <trkpt lat="43.59808" lon="3.77094">
        <ele>78.316887</ele>
        <time>2020-09-13T07:52:10Z</time>
      </trkpt>
      <trkpt lat="43.5978" lon="3.77125">
        <ele>74.908203</ele>
        <time>2020-09-13T07:52:15Z</time>
      </trkpt>
      <trkpt lat="43.59751" lon="3.77154">
        <ele>72.353355</ele>
        <time>2020-09-13T07:52:20Z</time>
      </trkpt>
      <trkpt lat="43.5973" lon="3.77175">
        <ele>71.04834</ele>
        <time>2020-09-13T07:52:25Z</time>
      </trkpt>
      <trkpt lat="43.59742" lon="3.77194">
        <ele>70.224037</ele>
        <time>2020-09-13T07:52:30Z</time>
      </trkpt>
      <trkpt lat="43.59765" lon="3.77217">
        <ele>69.467934</ele>
        <time>2020-09-13T07:52:35Z</time>
      </trkpt>
      <trkpt lat="43.59789" lon="3.77241">
        <ele>68.820152</ele>
        <time>2020-09-13T07:52:40Z</time>
      </trkpt>
      <trkpt lat="43.59814" lon="3.77261">
        <ele>68.317909</ele>
        <time>2020-09-13T07:52:45Z</time>
      </trkpt>
      <trkpt lat="43.59837" lon="3.77278">
        <ele>68.394287</ele>
        <time>2020-09-13T07:52:50Z</time>
      </trkpt>
      <trkpt lat="43.59855" lon="3.77294">
        <ele>68.542511</ele>
        <time>2020-09-13T07:52:55Z</time>
      </trkpt>
      <trkpt lat="43.59869" lon="3.77313">
        <ele>68.520844</ele>
        <time>2020-09-13T07:53:00Z</time>
      </trkpt>
      <trkpt lat="43.59883" lon="3.77331">
        <ele>68.446732</ele>
        <time>2020-09-13T07:53:05Z</time>
      </trkpt>
      <trkpt lat="43.59897" lon="3.7735">
        <ele>68.472412</ele>
        <time>2020-09-13T07:53:10Z</time>
      </trkpt>
      <trkpt lat="43.59912" lon="3.77371">
        <ele>68.620689</ele>
        <time>2020-09-13T07:53:15Z</time>
      </trkpt>
      <trkpt lat="43.59928" lon="3.77392">
        <ele>68.763268</ele>
        <time>2020-09-13T07:53:20Z</time>
      </trkpt>
      <trkpt lat="43.59946" lon="3.77412">
        <ele>69.086174</ele>
        <time>2020-09-13T07:53:25Z</time>
      </trkpt>
      <trkpt lat="43.59966" lon="3.77429">
        <ele>69.599289</ele>
        <time>2020-09-13T07:53:30Z</time>
      </trkpt>
      <trkpt lat="43.5999" lon="3.77452">
        <ele>69.915092</ele>
        <time>2020-09-13T07:53:35Z</time>
      </trkpt>
      <trkpt lat="43.60017" lon="3.77479">
        <ele>69.966049</ele>
        <time>2020-09-13T07:53:40Z</time>
      </trkpt>
      <trkpt lat="43.60048" lon="3.77501">
        <ele>69.923813</ele>
        <time>2020-09-13T07:53:45Z</time>
      </trkpt>
      <trkpt lat="43.60072" lon="3.77528">
        <ele>69.66787</ele>
        <time>2020-09-13T07:53:50Z</time>
      </trkpt>
      <trkpt lat="43.6009" lon="3.77569">
        <ele>68.652229</ele>
        <time>2020-09-13T07:53:55Z</time>
      </trkpt>
      <trkpt lat="43.6012" lon="3.77604">
        <ele>66.66301</ele>
        <time>2020-09-13T07:54:00Z</time>
      </trkpt>
      <trkpt lat="43.60151" lon="3.77636">
        <ele>64.883385</ele>
        <time>2020-09-13T07:54:05Z</time>
      </trkpt>
      <trkpt lat="43.60184" lon="3.77659">
        <ele>62.419861</ele>
        <time>2020-09-13T07:54:10Z</time>
      </trkpt>
      <trkpt lat="43.60217" lon="3.7768">
        <ele>59.509739</ele>
        <time>2020-09-13T07:54:15Z</time>
      </trkpt>
      <trkpt lat="43.60252" lon="3.777">
        <ele>57.793045</ele>
        <time>2020-09-13T07:54:20Z</time>
      </trkpt>
      <trkpt lat="43.60287" lon="3.77716">
        <ele>56.414875</ele>
        <time>2020-09-13T07:54:25Z</time>
      </trkpt>
      <trkpt lat="43.60322" lon="3.77732">
        <ele>55.631042</ele>
        <time>2020-09-13T07:54:30Z</time>
      </trkpt>
      <trkpt lat="43.60357" lon="3.77745">
        <ele>55.6492</ele>
        <time>2020-09-13T07:54:35Z</time>
      </trkpt>
      <trkpt lat="43.60386" lon="3.77763">
        <ele>56.203289</ele>
        <time>2020-09-13T07:54:40Z</time>
      </trkpt>
      <trkpt lat="43.60407" lon="3.77789">
        <ele>56.841473</ele>
        <time>2020-09-13T07:54:45Z</time>
      </trkpt>
      <trkpt lat="43.60424" lon="3.77814">
        <ele>57.102295</ele>
        <time>2020-09-13T07:54:50Z</time>
      </trkpt>
      <trkpt lat="43.6044" lon="3.77837">
        <ele>57.47876</ele>
        <time>2020-09-13T07:54:55Z</time>
      </trkpt>
      <trkpt lat="43.60453" lon="3.77858">
        <ele>57.827637</ele>
        <time>2020-09-13T07:55:00Z</time>
      </trkpt>
      <trkpt lat="43.60466" lon="3.77879">
        <ele>58.113281</ele>
        <time>2020-09-13T07:55:05Z</time>
      </trkpt>
      <trkpt lat="43.6048" lon="3.77902">
        <ele>58.634766</ele>
        <time>2020-09-13T07:55:10Z</time>
      </trkpt>
      <trkpt lat="43.60494" lon="3.77927">
        <ele>59.216686</ele>
        <time>2020-09-13T07:55:15Z</time>
      </trkpt>
      <trkpt lat="43.60511" lon="3.77949">
        <ele>60.146137</ele>
        <time>2020-09-13T07:55:20Z</time>
      </trkpt>
      <trkpt lat="43.60531" lon="3.77972">
        <ele>60.847492</ele>
        <time>2020-09-13T07:55:25Z</time>
      </trkpt>
      <trkpt lat="43.6055" lon="3.77992">
        <ele>61.639324</ele>
        <time>2020-09-13T07:55:30Z</time>
      </trkpt>
      <trkpt lat="43.60561" lon="3.78011">
        <ele>62.299824</ele>
        <time>2020-09-13T07:55:35Z</time>
      </trkpt>
      <trkpt lat="43.60556" lon="3.78032">
        <ele>62.675903</ele>
        <time>2020-09-13T07:55:40Z</time>
      </trkpt>
      <trkpt lat="43.60556" lon="3.78053">
        <ele>62.29398</ele>
        <time>2020-09-13T07:55:45Z</time>
      </trkpt>
      <trkpt lat="43.60564" lon="3.78088">
        <ele>61.868015</ele>
        <time>2020-09-13T07:55:50Z</time>
      </trkpt>
      <trkpt lat="43.60572" lon="3.78126">
        <ele>61.669296</ele>
        <time>2020-09-13T07:55:55Z</time>
      </trkpt>
      <trkpt lat="43.6058" lon="3.78162">
        <ele>61.52438</ele>
        <time>2020-09-13T07:56:00Z</time>
      </trkpt>
      <trkpt lat="43.60589" lon="3.78197">
        <ele>61.582218</ele>
        <time>2020-09-13T07:56:05Z</time>
      </trkpt>
      <trkpt lat="43.606" lon="3.78231">
        <ele>61.720703</ele>
        <time>2020-09-13T07:56:10Z</time>
      </trkpt>
      <trkpt lat="43.60612" lon="3.78263">
        <ele>62.153728</ele>
        <time>2020-09-13T07:56:15Z</time>
      </trkpt>
      <trkpt lat="43.60624" lon="3.78292">
        <ele>62.710526</ele>
        <time>2020-09-13T07:56:20Z</time>
      </trkpt>
      <trkpt lat="43.60639" lon="3.78319">
        <ele>63.735165</ele>
        <time>2020-09-13T07:56:25Z</time>
      </trkpt>
      <trkpt lat="43.60649" lon="3.78346">
        <ele>64.749397</ele>
        <time>2020-09-13T07:56:30Z</time>
      </trkpt>
      <trkpt lat="43.60653" lon="3.78375">
        <ele>65.569908</ele>
        <time>2020-09-13T07:56:35Z</time>
      </trkpt>
      <trkpt lat="43.60669" lon="3.78398">
        <ele>66.222511</ele>
        <time>2020-09-13T07:56:40Z</time>
      </trkpt>
      <trkpt lat="43.60685" lon="3.78425">
        <ele>66.748207</ele>
        <time>2020-09-13T07:56:45Z</time>
      </trkpt>
      <trkpt lat="43.60699" lon="3.78454">
        <ele>67.383209</ele>
        <time>2020-09-13T07:56:50Z</time>
      </trkpt>
      <trkpt lat="43.60713" lon="3.78482">
        <ele>68.27227</ele>
        <time>2020-09-13T07:56:55Z</time>
      </trkpt>
      <trkpt lat="43.60725" lon="3.78512">
        <ele>68.896675</ele>
        <time>2020-09-13T07:57:00Z</time>
      </trkpt>
      <trkpt lat="43.60741" lon="3.78539">
        <ele>69</ele>
        <time>2020-09-13T07:57:05Z</time>
      </trkpt>
      <trkpt lat="43.60752" lon="3.78569">
        <ele>69</ele>
        <time>2020-09-13T07:57:10Z</time>
      </trkpt>
      <trkpt lat="43.60766" lon="3.78598">
        <ele>69.063393</ele>
        <time>2020-09-13T07:57:15Z</time>
      </trkpt>
      <trkpt lat="43.60777" lon="3.78625">
        <ele>69.417801</ele>
        <time>2020-09-13T07:57:20Z</time>
      </trkpt>
      <trkpt lat="43.6079" lon="3.78649">
        <ele>69.820793</ele>
        <time>2020-09-13T07:57:25Z</time>
      </trkpt>
      <trkpt lat="43.60802" lon="3.78673">
        <ele>70.600426</ele>
        <time>2020-09-13T07:57:30Z</time>
      </trkpt>
      <trkpt lat="43.60812" lon="3.78701">
        <ele>71.299721</ele>
        <time>2020-09-13T07:57:35Z</time>
      </trkpt>
      <trkpt lat="43.60823" lon="3.78731">
        <ele>72.047447</ele>
        <time>2020-09-13T07:57:40Z</time>
      </trkpt>
      <trkpt lat="43.60832" lon="3.78758">
        <ele>72.774414</ele>
        <time>2020-09-13T07:57:45Z</time>
      </trkpt>
      <trkpt lat="43.6084" lon="3.78778">
        <ele>73.437462</ele>
        <time>2020-09-13T07:57:50Z</time>
      </trkpt>
      <trkpt lat="43.60851" lon="3.78798">
        <ele>74.093742</ele>
        <time>2020-09-13T07:57:55Z</time>
      </trkpt>
      <trkpt lat="43.60857" lon="3.78815">
        <ele>74.845726</ele>
        <time>2020-09-13T07:58:00Z</time>
      </trkpt>
      <trkpt lat="43.60863" lon="3.78829">
        <ele>75.54007</ele>
        <time>2020-09-13T07:58:05Z</time>
      </trkpt>
      <trkpt lat="43.6087" lon="3.78847">
        <ele>76.177498</ele>
        <time>2020-09-13T07:58:10Z</time>
      </trkpt>
      <trkpt lat="43.60878" lon="3.78867">
        <ele>76.780518</ele>
        <time>2020-09-13T07:58:15Z</time>
      </trkpt>
      <trkpt lat="43.6088" lon="3.78887">
        <ele>77.760986</ele>
        <time>2020-09-13T07:58:20Z</time>
      </trkpt>
      <trkpt lat="43.6088" lon="3.78909">
        <ele>78.465141</ele>
        <time>2020-09-13T07:58:25Z</time>
      </trkpt>
      <trkpt lat="43.60879" lon="3.78932">
        <ele>79.224358</ele>
        <time>2020-09-13T07:58:30Z</time>
      </trkpt>
      <trkpt lat="43.60875" lon="3.78959">
        <ele>79.904671</ele>
        <time>2020-09-13T07:58:35Z</time>
      </trkpt>
      <trkpt lat="43.6087" lon="3.78985">
        <ele>80.533791</ele>
        <time>2020-09-13T07:58:40Z</time>
      </trkpt>
      <trkpt lat="43.60863" lon="3.79016">
        <ele>80.877602</ele>
        <time>2020-09-13T07:58:45Z</time>
      </trkpt>
      <trkpt lat="43.60856" lon="3.79057">
        <ele>81.03685</ele>
        <time>2020-09-13T07:58:50Z</time>
      </trkpt>
      <trkpt lat="43.60848" lon="3.79106">
        <ele>80.931892</ele>
        <time>2020-09-13T07:58:55Z</time>
      </trkpt>
      <trkpt lat="43.60841" lon="3.79162">
        <ele>80.296898</ele>
        <time>2020-09-13T07:59:00Z</time>
      </trkpt>
      <trkpt lat="43.60837" lon="3.79225">
        <ele>79.166702</ele>
        <time>2020-09-13T07:59:05Z</time>
      </trkpt>
      <trkpt lat="43.60835" lon="3.7929">
        <ele>77.805183</ele>
        <time>2020-09-13T07:59:10Z</time>
      </trkpt>
      <trkpt lat="43.60836" lon="3.79346">
        <ele>76.576164</ele>
        <time>2020-09-13T07:59:15Z</time>
      </trkpt>
      <trkpt lat="43.60839" lon="3.79388">
        <ele>75.466774</ele>
        <time>2020-09-13T07:59:20Z</time>
      </trkpt>
      <trkpt lat="43.60843" lon="3.79439">
        <ele>74.631012</ele>
        <time>2020-09-13T07:59:25Z</time>
      </trkpt>
      <trkpt lat="43.6085" lon="3.79495">
        <ele>73.200256</ele>
        <time>2020-09-13T07:59:30Z</time>
      </trkpt>
      <trkpt lat="43.6086" lon="3.79552">
        <ele>71.2089</ele>
        <time>2020-09-13T07:59:35Z</time>
      </trkpt>
      <trkpt lat="43.60871" lon="3.7961">
        <ele>68.86898</ele>
        <time>2020-09-13T07:59:40Z</time>
      </trkpt>
      <trkpt lat="43.60883" lon="3.79669">
        <ele>66.308571</ele>
        <time>2020-09-13T07:59:45Z</time>
      </trkpt>
      <trkpt lat="43.60894" lon="3.79727">
        <ele>63.509388</ele>
        <time>2020-09-13T07:59:50Z</time>
      </trkpt>
      <trkpt lat="43.60907" lon="3.79782">
        <ele>60.551105</ele>
        <time>2020-09-13T07:59:55Z</time>
      </trkpt>
      <trkpt lat="43.60918" lon="3.79834">
        <ele>57.811768</ele>
        <time>2020-09-13T08:00:00Z</time>
      </trkpt>
      <trkpt lat="43.6093" lon="3.79884">
        <ele>55.758137</ele>
        <time>2020-09-13T08:00:05Z</time>
      </trkpt>
      <trkpt lat="43.6094" lon="3.79918">
        <ele>53.960613</ele>
        <time>2020-09-13T08:00:10Z</time>
      </trkpt>
      <trkpt lat="43.60942" lon="3.79926">
        <ele>52.807293</ele>
        <time>2020-09-13T08:00:15Z</time>
      </trkpt>
      <trkpt lat="43.60947" lon="3.79946">
        <ele>52.228069</ele>
        <time>2020-09-13T08:00:25Z</time>
      </trkpt>
      <trkpt lat="43.60955" lon="3.7998">
        <ele>51.845963</ele>
        <time>2020-09-13T08:00:35Z</time>
      </trkpt>
      <trkpt lat="43.60962" lon="3.80022">
        <ele>51.20578</ele>
        <time>2020-09-13T08:00:40Z</time>
      </trkpt>
      <trkpt lat="43.6097" lon="3.80066">
        <ele>50.544392</ele>
        <time>2020-09-13T08:00:45Z</time>
      </trkpt>
      <trkpt lat="43.6098" lon="3.80108">
        <ele>49.976593</ele>
        <time>2020-09-13T08:00:50Z</time>
      </trkpt>
      <trkpt lat="43.60989" lon="3.80149">
        <ele>49.590382</ele>
        <time>2020-09-13T08:00:55Z</time>
      </trkpt>
      <trkpt lat="43.60997" lon="3.8019">
        <ele>49.37001</ele>
        <time>2020-09-13T08:01:00Z</time>
      </trkpt>
      <trkpt lat="43.61005" lon="3.8023">
        <ele>49.317806</ele>
        <time>2020-09-13T08:01:05Z</time>
      </trkpt>
      <trkpt lat="43.61014" lon="3.80268">
        <ele>49.456867</ele>
        <time>2020-09-13T08:01:10Z</time>
      </trkpt>
      <trkpt lat="43.61022" lon="3.80305">
        <ele>49.785828</ele>
        <time>2020-09-13T08:01:15Z</time>
      </trkpt>
      <trkpt lat="43.61032" lon="3.8034">
        <ele>50.32486</ele>
        <time>2020-09-13T08:01:20Z</time>
      </trkpt>
      <trkpt lat="43.61043" lon="3.80373">
        <ele>51.272297</ele>
        <time>2020-09-13T08:01:25Z</time>
      </trkpt>
      <trkpt lat="43.61057" lon="3.80406">
        <ele>51.762939</ele>
        <time>2020-09-13T08:01:30Z</time>
      </trkpt>
      <trkpt lat="43.61071" lon="3.80439">
        <ele>52.445496</ele>
        <time>2020-09-13T08:01:35Z</time>
      </trkpt>
      <trkpt lat="43.61086" lon="3.80473">
        <ele>53.182247</ele>
        <time>2020-09-13T08:01:40Z</time>
      </trkpt>
      <trkpt lat="43.61102" lon="3.80507">
        <ele>53.847702</ele>
        <time>2020-09-13T08:01:45Z</time>
      </trkpt>
      <trkpt lat="43.61116" lon="3.8054">
        <ele>54.668797</ele>
        <time>2020-09-13T08:01:50Z</time>
      </trkpt>
      <trkpt lat="43.61132" lon="3.80572">
        <ele>55.276611</ele>
        <time>2020-09-13T08:01:55Z</time>
      </trkpt>
      <trkpt lat="43.61147" lon="3.80602">
        <ele>55.562336</ele>
        <time>2020-09-13T08:02:00Z</time>
      </trkpt>
      <trkpt lat="43.61164" lon="3.80632">
        <ele>55.750828</ele>
        <time>2020-09-13T08:02:05Z</time>
      </trkpt>
      <trkpt lat="43.61179" lon="3.80665">
        <ele>55.772152</ele>
        <time>2020-09-13T08:02:10Z</time>
      </trkpt>
      <trkpt lat="43.61195" lon="3.80699">
        <ele>55.749363</ele>
        <time>2020-09-13T08:02:15Z</time>
      </trkpt>
      <trkpt lat="43.6121" lon="3.80733">
        <ele>55.804245</ele>
        <time>2020-09-13T08:02:20Z</time>
      </trkpt>
      <trkpt lat="43.61223" lon="3.80766">
        <ele>55.830143</ele>
        <time>2020-09-13T08:02:25Z</time>
      </trkpt>
      <trkpt lat="43.61227" lon="3.80785">
        <ele>55.63916</ele>
        <time>2020-09-13T08:02:30Z</time>
      </trkpt>
      <trkpt lat="43.6122" lon="3.80805">
        <ele>55.435871</ele>
        <time>2020-09-13T08:02:35Z</time>
      </trkpt>
      <trkpt lat="43.61234" lon="3.80808">
        <ele>55.128174</ele>
        <time>2020-09-13T08:02:40Z</time>
      </trkpt>
      <trkpt lat="43.61248" lon="3.80831">
        <ele>55.178371</ele>
        <time>2020-09-13T08:02:45Z</time>
      </trkpt>
      <trkpt lat="43.61261" lon="3.80863">
        <ele>55.452374</ele>
        <time>2020-09-13T08:02:50Z</time>
      </trkpt>
      <trkpt lat="43.61275" lon="3.80893">
        <ele>55.581085</ele>
        <time>2020-09-13T08:02:55Z</time>
      </trkpt>
      <trkpt lat="43.61282" lon="3.80927">
        <ele>55.552505</ele>
        <time>2020-09-13T08:03:00Z</time>
      </trkpt>
      <trkpt lat="43.61291" lon="3.80965">
        <ele>55.171711</ele>
        <time>2020-09-13T08:03:05Z</time>
      </trkpt>
      <trkpt lat="43.61299" lon="3.81004">
        <ele>54.580402</ele>
        <time>2020-09-13T08:03:10Z</time>
      </trkpt>
      <trkpt lat="43.61308" lon="3.8104">
        <ele>53.644855</ele>
        <time>2020-09-13T08:03:15Z</time>
      </trkpt>
      <trkpt lat="43.61315" lon="3.81076">
        <ele>52.878815</ele>
        <time>2020-09-13T08:03:20Z</time>
      </trkpt>
      <trkpt lat="43.61325" lon="3.81113">
        <ele>51.981567</ele>
        <time>2020-09-13T08:03:25Z</time>
      </trkpt>
      <trkpt lat="43.61338" lon="3.81149">
        <ele>50.840332</ele>
        <time>2020-09-13T08:03:30Z</time>
      </trkpt>
      <trkpt lat="43.61353" lon="3.81187">
        <ele>49.880207</ele>
        <time>2020-09-13T08:03:35Z</time>
      </trkpt>
      <trkpt lat="43.61367" lon="3.81224">
        <ele>48.788574</ele>
        <time>2020-09-13T08:03:40Z</time>
      </trkpt>
      <trkpt lat="43.61379" lon="3.81257">
        <ele>48.173096</ele>
        <time>2020-09-13T08:03:45Z</time>
      </trkpt>
      <trkpt lat="43.6139" lon="3.8129">
        <ele>47.901123</ele>
        <time>2020-09-13T08:03:50Z</time>
      </trkpt>
      <trkpt lat="43.614" lon="3.81326">
        <ele>47.854168</ele>
        <time>2020-09-13T08:03:55Z</time>
      </trkpt>
      <trkpt lat="43.61403" lon="3.81368">
        <ele>48.349854</ele>
        <time>2020-09-13T08:04:00Z</time>
      </trkpt>
      <trkpt lat="43.61406" lon="3.81414">
        <ele>48.973957</ele>
        <time>2020-09-13T08:04:05Z</time>
      </trkpt>
      <trkpt lat="43.61408" lon="3.8146">
        <ele>49.143879</ele>
        <time>2020-09-13T08:04:10Z</time>
      </trkpt>
      <trkpt lat="43.6141" lon="3.81506">
        <ele>49.203938</ele>
        <time>2020-09-13T08:04:15Z</time>
      </trkpt>
      <trkpt lat="43.61412" lon="3.81547">
        <ele>49.064632</ele>
        <time>2020-09-13T08:04:20Z</time>
      </trkpt>
      <trkpt lat="43.61422" lon="3.81561">
        <ele>48.454853</ele>
        <time>2020-09-13T08:04:25Z</time>
      </trkpt>
      <trkpt lat="43.61445" lon="3.81553">
        <ele>48.175198</ele>
        <time>2020-09-13T08:04:30Z</time>
      </trkpt>
      <trkpt lat="43.61466" lon="3.81554">
        <ele>48.562943</ele>
        <time>2020-09-13T08:04:35Z</time>
      </trkpt>
      <trkpt lat="43.61476" lon="3.81589">
        <ele>48.69458</ele>
        <time>2020-09-13T08:04:40Z</time>
      </trkpt>
      <trkpt lat="43.61486" lon="3.81629">
        <ele>47.93718</ele>
        <time>2020-09-13T08:04:45Z</time>
      </trkpt>
      <trkpt lat="43.61496" lon="3.81666">
        <ele>46.508076</ele>
        <time>2020-09-13T08:04:50Z</time>
      </trkpt>
      <trkpt lat="43.61506" lon="3.81699">
        <ele>45.292805</ele>
        <time>2020-09-13T08:04:55Z</time>
      </trkpt>
      <trkpt lat="43.61518" lon="3.81735">
        <ele>44.294994</ele>
        <time>2020-09-13T08:05:00Z</time>
      </trkpt>
      <trkpt lat="43.61528" lon="3.81773">
        <ele>43.1777</ele>
        <time>2020-09-13T08:05:05Z</time>
      </trkpt>
      <trkpt lat="43.61539" lon="3.81814">
        <ele>41.928097</ele>
        <time>2020-09-13T08:05:10Z</time>
      </trkpt>
      <trkpt lat="43.61549" lon="3.81854">
        <ele>41.258015</ele>
        <time>2020-09-13T08:05:15Z</time>
      </trkpt>
      <trkpt lat="43.61552" lon="3.8189">
        <ele>41.157337</ele>
        <time>2020-09-13T08:05:20Z</time>
      </trkpt>
      <trkpt lat="43.61549" lon="3.81924">
        <ele>41.432739</ele>
        <time>2020-09-13T08:05:25Z</time>
      </trkpt>
      <trkpt lat="43.61543" lon="3.81956">
        <ele>41.733521</ele>
        <time>2020-09-13T08:05:30Z</time>
      </trkpt>
      <trkpt lat="43.61538" lon="3.81987">
        <ele>41.895798</ele>
        <time>2020-09-13T08:05:35Z</time>
      </trkpt>
      <trkpt lat="43.61533" lon="3.82015">
        <ele>42.019924</ele>
        <time>2020-09-13T08:05:40Z</time>
      </trkpt>
      <trkpt lat="43.61529" lon="3.82043">
        <ele>42.057781</ele>
        <time>2020-09-13T08:05:45Z</time>
      </trkpt>
      <trkpt lat="43.61527" lon="3.8207">
        <ele>42.118351</ele>
        <time>2020-09-13T08:05:50Z</time>
      </trkpt>
      <trkpt lat="43.61524" lon="3.82095">
        <ele>42.811279</ele>
        <time>2020-09-13T08:05:55Z</time>
      </trkpt>
      <trkpt lat="43.61524" lon="3.82118">
        <ele>43.606445</ele>
        <time>2020-09-13T08:06:00Z</time>
      </trkpt>
      <trkpt lat="43.6152" lon="3.82144">
        <ele>44.698669</ele>
        <time>2020-09-13T08:06:05Z</time>
      </trkpt>
      <trkpt lat="43.61517" lon="3.82167">
        <ele>45.639019</ele>
        <time>2020-09-13T08:06:10Z</time>
      </trkpt>
      <trkpt lat="43.61514" lon="3.82188">
        <ele>46.502945</ele>
        <time>2020-09-13T08:06:15Z</time>
      </trkpt>
      <trkpt lat="43.61515" lon="3.82201">
        <ele>47.265156</ele>
        <time>2020-09-13T08:06:20Z</time>
      </trkpt>
      <trkpt lat="43.615" lon="3.82209">
        <ele>47.85252</ele>
        <time>2020-09-13T08:06:25Z</time>
      </trkpt>
      <trkpt lat="43.6148" lon="3.82208">
        <ele>47.744541</ele>
        <time>2020-09-13T08:06:30Z</time>
      </trkpt>
      <trkpt lat="43.61459" lon="3.82213">
        <ele>46.699707</ele>
        <time>2020-09-13T08:06:35Z</time>
      </trkpt>
      <trkpt lat="43.61437" lon="3.82224">
        <ele>45.654297</ele>
        <time>2020-09-13T08:06:40Z</time>
      </trkpt>
      <trkpt lat="43.61422" lon="3.82234">
        <ele>44.813721</ele>
        <time>2020-09-13T08:06:45Z</time>
      </trkpt>
      <trkpt lat="43.61403" lon="3.82247">
        <ele>44.513916</ele>
        <time>2020-09-13T08:06:50Z</time>
      </trkpt>
      <trkpt lat="43.6139" lon="3.82267">
        <ele>44.341797</ele>
        <time>2020-09-13T08:06:55Z</time>
      </trkpt>
      <trkpt lat="43.61381" lon="3.82282">
        <ele>44.471436</ele>
        <time>2020-09-13T08:07:00Z</time>
      </trkpt>
      <trkpt lat="43.61371" lon="3.82294">
        <ele>44.774902</ele>
        <time>2020-09-13T08:07:05Z</time>
      </trkpt>
      <trkpt lat="43.61356" lon="3.82296">
        <ele>44.818848</ele>
        <time>2020-09-13T08:07:10Z</time>
      </trkpt>
      <trkpt lat="43.61345" lon="3.82298">
        <ele>44.53418</ele>
        <time>2020-09-13T08:07:15Z</time>
      </trkpt>
      <trkpt lat="43.61335" lon="3.82309">
        <ele>44.33252</ele>
        <time>2020-09-13T08:07:20Z</time>
      </trkpt>
      <trkpt lat="43.6132" lon="3.82327">
        <ele>44.403484</ele>
        <time>2020-09-13T08:07:25Z</time>
      </trkpt>
      <trkpt lat="43.61308" lon="3.82354">
        <ele>44.785999</ele>
        <time>2020-09-13T08:07:30Z</time>
      </trkpt>
      <trkpt lat="43.61311" lon="3.82389">
        <ele>45.867123</ele>
        <time>2020-09-13T08:07:35Z</time>
      </trkpt>
      <trkpt lat="43.61312" lon="3.82419">
        <ele>47.776089</ele>
        <time>2020-09-13T08:07:40Z</time>
      </trkpt>
      <trkpt lat="43.61306" lon="3.8245">
        <ele>49.347412</ele>
        <time>2020-09-13T08:07:45Z</time>
      </trkpt>
      <trkpt lat="43.61299" lon="3.82474">
        <ele>51.281574</ele>
        <time>2020-09-13T08:07:50Z</time>
      </trkpt>
      <trkpt lat="43.61281" lon="3.82495">
        <ele>52.477253</ele>
        <time>2020-09-13T08:07:55Z</time>
      </trkpt>
      <trkpt lat="43.61266" lon="3.82509">
        <ele>54.749287</ele>
        <time>2020-09-13T08:08:00Z</time>
      </trkpt>
      <trkpt lat="43.61246" lon="3.82514">
        <ele>56.676098</ele>
        <time>2020-09-13T08:08:05Z</time>
      </trkpt>
      <trkpt lat="43.61227" lon="3.82528">
        <ele>58.440548</ele>
        <time>2020-09-13T08:08:10Z</time>
      </trkpt>
      <trkpt lat="43.61207" lon="3.82549">
        <ele>60.739594</ele>
        <time>2020-09-13T08:08:15Z</time>
      </trkpt>
      <trkpt lat="43.61198" lon="3.82584">
        <ele>63.428467</ele>
        <time>2020-09-13T08:08:20Z</time>
      </trkpt>
      <trkpt lat="43.61194" lon="3.82615">
        <ele>65.806885</ele>
        <time>2020-09-13T08:08:25Z</time>
      </trkpt>
      <trkpt lat="43.6119" lon="3.82647">
        <ele>66.720947</ele>
        <time>2020-09-13T08:08:30Z</time>
      </trkpt>
      <trkpt lat="43.61184" lon="3.82678">
        <ele>66.616417</ele>
        <time>2020-09-13T08:08:35Z</time>
      </trkpt>
      <trkpt lat="43.61177" lon="3.82711">
        <ele>66.288582</ele>
        <time>2020-09-13T08:08:40Z</time>
      </trkpt>
      <trkpt lat="43.61171" lon="3.82743">
        <ele>65.508163</ele>
        <time>2020-09-13T08:08:45Z</time>
      </trkpt>
      <trkpt lat="43.61164" lon="3.82776">
        <ele>64.699768</ele>
        <time>2020-09-13T08:08:50Z</time>
      </trkpt>
      <trkpt lat="43.6116" lon="3.8281">
        <ele>64.395454</ele>
        <time>2020-09-13T08:08:55Z</time>
      </trkpt>
    </trkseg>
  </trk>
</gpx>